Observation data for Bootleg on 05/04/2021      Previous  Date  Next       Current Mesonet Observations  Soil Data  Daily Summary Page  Observations in Plain Language
KBO1 040500Z 35012KT 07/07 A3009 RMK A01 T00660066  RH  100%=      5-min Rain = 0
KBO1 040501Z 35015KT 07/07 A3009 RMK A01 T00660066  RH  100%=      5-min Rain = 0
KBO1 040502Z 35014KT 07/07 A3009 RMK A01 T00660066  RH  100%=      5-min Rain = 0
KBO1 040503Z 35016KT 07/07 A3009 RMK A01 T00660066  RH  100%=      5-min Rain = 0
KBO1 040504Z 35017KT 07/07 A3009 RMK A01 T00660066  RH  100%=      5-min Rain = 0
KBO1 040505Z 35019KT 07/07 A3009 RMK A01 T00660066  RH  100%=      5-min Rain = 0
KBO1 040506Z 35016KT 07/07 A3009 RMK A01 T00660066  RH  100%=      5-min Rain = 0
KBO1 040507Z 35018KT 07/07 A3009 RMK A01 T00660066  RH  100%=      5-min Rain = 0
KBO1 040508Z 35016KT 07/07 A3009 RMK A01 T00660066  RH  100%=      5-min Rain = 0
KBO1 040509Z 35015G20KT 07/07 A3009 RMK A01 T00660066  RH  100%=      5-min Rain = 0
KBO1 040510Z 35018KT 07/07 A3009 RMK A01 T00660066  RH  100%=      5-min Rain = 0
KBO1 040511Z 35015G21KT 07/07 A3009 RMK A01 T00660066  RH  100%=      5-min Rain = 0
KBO1 040512Z 35014KT 07/07 A3009 RMK A01 T00660066  RH  100%=      5-min Rain = 0
KBO1 040513Z 35014KT 07/07 A3009 RMK A01 T00660066  RH  100%=      5-min Rain = 0
KBO1 040514Z 35016KT 07/07 A3009 RMK A01 T00660066  RH  100%=      5-min Rain = 0
KBO1 040515Z 35017KT 07/07 A3009 RMK A01 T00660066  RH  100%=      5-min Rain = 0
KBO1 040516Z 35019KT 07/07 A3009 RMK A01 T00660066  RH  100%=      5-min Rain = 0
KBO1 040517Z 35018KT 07/07 A3009 RMK A01 T00660066  RH  100%=      5-min Rain = 0
KBO1 040518Z 35017KT 07/07 A3009 RMK A01 T00660066  RH  100%=      5-min Rain = 0
KBO1 040519Z 35019KT 07/07 A3009 RMK A01 T00660066  RH  100%=      5-min Rain = 0
KBO1 040520Z 35019KT 07/07 A3009 RMK A01 T00660066  RH  100%=      5-min Rain = 0
KBO1 040521Z 36016KT 07/07 A3009 RMK A01 T00660066  RH  100%=      5-min Rain = 0
KBO1 040522Z 36019KT 07/07 A3009 RMK A01 T00660066  RH  100%=      5-min Rain = 0
KBO1 040523Z 35018KT 07/07 A3009 RMK A01 T00660066  RH  100%=      5-min Rain = 0
KBO1 040524Z 35015G21KT 07/07 A3009 RMK A01 T00660066  RH  100%=      5-min Rain = 0
KBO1 040525Z 35019G24KT 07/07 A3009 RMK A01 T00660066  RH  100%=      5-min Rain = 0
KBO1 040526Z 00017KT 07/07 A3009 RMK A01 T00660066  RH  100%=      5-min Rain = 0
KBO1 040527Z 36019KT 07/07 A3009 RMK A01 T00660066  RH  100%=      5-min Rain = 0
KBO1 040528Z 00017KT 07/07 A3009 RMK A01 T00660066  RH  100%=      5-min Rain = 0
KBO1 040529Z 36016KT 07/07 A3009 RMK A01 T00660066  RH  100%=      5-min Rain = 0
KBO1 040530Z 36021KT 07/07 A3009 RMK A01 T00660066  RH  100%=      5-min Rain = 0
KBO1 040531Z 36021KT 07/07 A3009 RMK A01 T00660066  RH  100%=      5-min Rain = 0
KBO1 040532Z 36020KT 07/07 A3009 RMK A01 T00660066  RH  100%=      5-min Rain = 0
KBO1 040533Z 00018KT 07/07 A3009 RMK A01 T00660066  RH  100%=      5-min Rain = 0
KBO1 040534Z 00019KT 07/07 A3009 RMK A01 T00660066  RH  100%=      5-min Rain = 0
KBO1 040535Z 00020KT 07/07 A3009 RMK A01 T00660066  RH  100%=      5-min Rain = 0
KBO1 040536Z 00018G23KT 07/07 A3009 RMK A01 T00660066  RH  100%=      5-min Rain = 0
KBO1 040537Z 00019KT 07/07 A3009 RMK A01 T00660066  RH  100%=      5-min Rain = 0
KBO1 040538Z 00018KT 07/07 A3009 RMK A01 T00660066  RH  100%=      5-min Rain = 0
KBO1 040539Z 00018KT 07/07 A3009 RMK A01 T00660066  RH  100%=      5-min Rain = 0
KBO1 040540Z 01017KT 07/07 A3009 RMK A01 T00660066  RH  100%=      5-min Rain = 0
KBO1 040541Z 00019G24KT 07/07 A3009 RMK A01 T00660066  RH  100%=      5-min Rain = 0
KBO1 040542Z 01021KT 07/07 A3009 RMK A01 T00660066  RH  100%=      5-min Rain = 0
KBO1 040543Z 00018KT 07/07 A3009 RMK A01 T00660066  RH  100%=      5-min Rain = 0
KBO1 040544Z 00017KT 07/07 A3009 RMK A01 T00660066  RH  100%=      5-min Rain = 0
KBO1 040545Z 00021KT 07/07 A3009 RMK A01 T00660066  RH  100%=      5-min Rain = 0
KBO1 040546Z 00019KT 07/07 A3009 RMK A01 T00660066  RH  100%=      5-min Rain = 0
KBO1 040547Z 01018KT 07/07 A3009 RMK A01 T00660066  RH  100%=      5-min Rain = 0
KBO1 040548Z 00019KT 07/07 A3009 RMK A01 T00660066  RH  100%=      5-min Rain = 0
KBO1 040549Z 00018KT 07/07 A3009 RMK A01 T00660066  RH  100%=      5-min Rain = 0
KBO1 040550Z 00016KT 07/07 A3009 RMK A01 T00660066  RH  100%=      5-min Rain = 0
KBO1 040551Z 00019KT 07/07 A3009 RMK A01 T00660066  RH  100%=      5-min Rain = 0
KBO1 040552Z 00017KT 07/07 A3009 RMK A01 T00660066  RH  100%=      5-min Rain = 0
KBO1 040553Z 01018KT 07/07 A3009 RMK A01 T00660066  RH  100%=      5-min Rain = 0
KBO1 040554Z 00019G25KT 07/07 A3009 RMK A01 T00660066  RH  100%=      5-min Rain = 0
KBO1 040555Z 01018KT 07/07 A3009 RMK A01 T00660066  RH  100%=      5-min Rain = 0
KBO1 040556Z 00016KT 07/07 A3009 RMK A01 T00660066  RH  100%=      5-min Rain = 0
KBO1 040557Z 00018KT 07/07 A3009 RMK A01 T00660066  RH  100%=      5-min Rain = 0
KBO1 040558Z 00020KT 07/07 A3009 RMK A01 T00660066  RH  100%=      5-min Rain = 0
KBO1 040559Z 00020KT 07/07 A3009 RMK A01 T00660066  RH  100%=      5-min Rain = 0
KBO1 040600Z 00020KT 07/07 A3009 RMK A01 T00660066  RH  100%=      5-min Rain = 0
KBO1 040601Z 00019KT 07/07 A3009 RMK A01 T00660066  RH  100%=      5-min Rain = 0
KBO1 040602Z 00018KT 07/07 A3009 RMK A01 T00660065  RH  099%=      5-min Rain = 0
KBO1 040603Z 01017KT 07/07 A3009 RMK A01 T00660066  RH  100%=      5-min Rain = 0
KBO1 040604Z 01017KT 07/07 A3009 RMK A01 T00660066  RH  100%=      5-min Rain = 0
KBO1 040605Z 00018KT 07/07 A3009 RMK A01 T00660066  RH  100%=      5-min Rain = 0
KBO1 040606Z 01020KT 07/07 A3009 RMK A01 T00660066  RH  100%=      5-min Rain = 0
KBO1 040607Z 01020KT 07/07 A3009 RMK A01 T00660066  RH  100%=      5-min Rain = 0
KBO1 040608Z 00019G24KT 07/07 A3009 RMK A01 T00660066  RH  100%=      5-min Rain = 0
KBO1 040609Z 01020KT 07/07 A301 RMK A01 T00660066  RH  100%=      5-min Rain = 0
KBO1 040610Z 00018KT 07/07 A301 RMK A01 T00660066  RH  100%=      5-min Rain = 0
KBO1 040611Z 00019KT 07/07 A301 RMK A01 T00660066  RH  100%=      5-min Rain = 0
KBO1 040612Z 01016KT 07/07 A301 RMK A01 T00670067  RH  100%=      5-min Rain = 0
KBO1 040613Z 00015KT 07/07 A301 RMK A01 T00660066  RH  100%=      5-min Rain = 0
KBO1 040614Z 01018KT 07/07 A301 RMK A01 T00670067  RH  100%=      5-min Rain = 0
KBO1 040615Z 00015KT 07/07 A301 RMK A01 T00660066  RH  100%=      5-min Rain = 0
KBO1 040616Z 00017KT 07/07 A301 RMK A01 T00660066  RH  100%=      5-min Rain = 0
KBO1 040617Z 00017KT 07/07 A301 RMK A01 T00660066  RH  100%=      5-min Rain = 0
KBO1 040618Z 01019KT 07/07 A301 RMK A01 T00660066  RH  100%=      5-min Rain = 0
KBO1 040619Z 01016KT 07/07 A301 RMK A01 T00660066  RH  100%=      5-min Rain = 0
KBO1 040620Z 01018KT 07/07 A301 RMK A01 T00660066  RH  100%=      5-min Rain = 0
KBO1 040621Z 01019KT 07/07 A301 RMK A01 T00660066  RH  100%=      5-min Rain = 0
KBO1 040622Z 01021KT 07/07 A301 RMK A01 T00660066  RH  100%=      5-min Rain = 0
KBO1 040623Z 01016G21KT 07/07 A301 RMK A01 T00660066  RH  100%=      5-min Rain = 0
KBO1 040624Z 01018KT 07/07 A301 RMK A01 T00660066  RH  100%=      5-min Rain = 0
KBO1 040625Z 01019KT 07/07 A301 RMK A01 T00660066  RH  100%=      5-min Rain = 0
KBO1 040626Z 01018KT 07/07 A301 RMK A01 T00660066  RH  100%=      5-min Rain = 0
KBO1 040627Z 01019KT 07/07 A301 RMK A01 T00660066  RH  100%=      5-min Rain = 0
KBO1 040628Z 01017KT 07/07 A301 RMK A01 T00660066  RH  100%=      5-min Rain = 0
KBO1 040629Z 01017KT 07/07 A301 RMK A01 T00660066  RH  100%=      5-min Rain = 0
KBO1 040630Z 01018KT 07/07 A301 RMK A01 T00660066  RH  100%=      5-min Rain = 0
KBO1 040631Z 02017KT 07/07 A301 RMK A01 T00660066  RH  100%=      5-min Rain = 0
KBO1 040632Z 01018KT 07/07 A301 RMK A01 T00660066  RH  100%=      5-min Rain = 0
KBO1 040633Z 01017KT 07/07 A301 RMK A01 T00660066  RH  100%=      5-min Rain = 0
KBO1 040634Z 01019KT 07/07 A301 RMK A01 T00660066  RH  100%=      5-min Rain = 0
KBO1 040635Z 01018KT 07/07 A3009 RMK A01 T00660066  RH  100%=      5-min Rain = 0
KBO1 040636Z 01019KT 07/07 A3009 RMK A01 T00660066  RH  100%=      5-min Rain = 0
KBO1 040637Z 01018KT 07/07 A3009 RMK A01 T00660066  RH  100%=      5-min Rain = 0
KBO1 040638Z 01020KT 07/07 A3009 RMK A01 T00660066  RH  100%=      5-min Rain = 0
KBO1 040639Z 01020KT 07/07 A3009 RMK A01 T00660066  RH  100%=      5-min Rain = 0
KBO1 040640Z 01020KT 07/07 A3009 RMK A01 T00660066  RH  100%=      5-min Rain = 0
KBO1 040641Z 01021KT 07/07 A3009 RMK A01 T00650065  RH  100%=      5-min Rain = 0
KBO1 040642Z 01019G24KT 07/07 A3009 RMK A01 T00650065  RH  100%=      5-min Rain = 0
KBO1 040643Z 01022KT 07/07 A3009 RMK A01 T00650065  RH  100%=      5-min Rain = 0
KBO1 040644Z 01019KT 07/07 A3009 RMK A01 T00660066  RH  100%=      5-min Rain = 0
KBO1 040645Z 01017KT 07/07 A3009 RMK A01 T00650065  RH  100%=      5-min Rain = 0
KBO1 040646Z 01020KT 07/07 A3009 RMK A01 T00650065  RH  100%=      5-min Rain = 0
KBO1 040647Z 01021KT 07/07 A3009 RMK A01 T00650065  RH  100%=      5-min Rain = 0
KBO1 040648Z 01021KT 07/07 A3009 RMK A01 T00650065  RH  100%=      5-min Rain = 0
KBO1 040649Z 01019KT 07/07 A3009 RMK A01 T00650065  RH  100%=      5-min Rain = 0
KBO1 040650Z 01020KT 07/07 A3009 RMK A01 T00650065  RH  100%=      5-min Rain = 0
KBO1 040651Z 01018KT 07/07 A3009 RMK A01 T00650065  RH  100%=      5-min Rain = 0
KBO1 040652Z 01018KT 07/07 A3009 RMK A01 T00650065  RH  100%=      5-min Rain = 0
KBO1 040653Z 01022KT 07/07 A3009 RMK A01 T00650065  RH  100%=      5-min Rain = 0
KBO1 040654Z 02022KT 06/06 A3009 RMK A01 T00640064  RH  100%=      5-min Rain = 0
KBO1 040655Z 02019KT 06/06 A3009 RMK A01 T00640064  RH  100%=      5-min Rain = 0
KBO1 040656Z 01020KT 06/06 A3009 RMK A01 T00640064  RH  100%=      5-min Rain = 0
KBO1 040657Z 01020KT 07/07 A3009 RMK A01 T00650065  RH  100%=      5-min Rain = 0
KBO1 040658Z 01019KT 06/06 A3009 RMK A01 T00640064  RH  100%=      5-min Rain = 0
KBO1 040659Z 01019KT 06/06 A3009 RMK A01 T00640064  RH  100%=      5-min Rain = 0
KBO1 040700Z 01020KT 06/06 A3009 RMK A01 T00640064  RH  100%=      5-min Rain = 0
KBO1 040701Z 01018KT 06/06 A3009 RMK A01 T00640064  RH  100%=      5-min Rain = 0
KBO1 040702Z 00017G23KT 06/06 A3009 RMK A01 T00640064  RH  100%=      5-min Rain = 0
KBO1 040703Z 01019KT 06/06 A301 RMK A01 T00630063  RH  100%=      5-min Rain = 0
KBO1 040704Z 00015G21KT 06/06 A301 RMK A01 T00630063  RH  100%=      5-min Rain = 0
KBO1 040705Z 01018KT 06/06 A301 RMK A01 T00640064  RH  100%=      5-min Rain = 0
KBO1 040706Z 01019KT 06/06 A301 RMK A01 T00630063  RH  100%=      5-min Rain = 0
KBO1 040707Z 01015KT 06/06 A301 RMK A01 T00630063  RH  100%=      5-min Rain = 0
KBO1 040708Z 01016KT 06/06 A301 RMK A01 T00630063  RH  100%=      5-min Rain = 0
KBO1 040709Z 00017KT 06/06 A301 RMK A01 T00630063  RH  100%=      5-min Rain = 0
KBO1 040710Z 01017KT 06/06 A301 RMK A01 T00630063  RH  100%=      5-min Rain = 0
KBO1 040711Z 01015KT 06/06 A301 RMK A01 T00620062  RH  100%=      5-min Rain = 0
KBO1 040712Z 01017KT 06/06 A301 RMK A01 T00630063  RH  100%=      5-min Rain = 0
KBO1 040713Z 01017KT 06/06 A301 RMK A01 T00630063  RH  100%=      5-min Rain = 0
KBO1 040714Z 01017KT 06/06 A301 RMK A01 T00630063  RH  100%=      5-min Rain = 0
KBO1 040715Z 01017KT 06/06 A301 RMK A01 T00620062  RH  100%=      5-min Rain = 0
KBO1 040716Z 01014KT 06/06 A301 RMK A01 T00620062  RH  100%=      5-min Rain = 0
KBO1 040717Z 01014KT 06/06 A3011 RMK A01 T00630063  RH  100%=      5-min Rain = 0
KBO1 040718Z 01016KT 06/06 A3011 RMK A01 T00620062  RH  100%=      5-min Rain = 0
KBO1 040719Z 01016KT 06/06 A3011 RMK A01 T00630063  RH  100%=      5-min Rain = 0
KBO1 040720Z 01016KT 06/06 A3011 RMK A01 T00630063  RH  100%=      5-min Rain = 0
KBO1 040721Z 02014KT 06/06 A3011 RMK A01 T00630063  RH  100%=      5-min Rain = 0
KBO1 040722Z 00011KT 06/06 A3011 RMK A01 T00630063  RH  100%=      5-min Rain = 0
KBO1 040723Z 01015KT 06/06 A3011 RMK A01 T00630063  RH  100%=      5-min Rain = 0
KBO1 040724Z 01014KT 06/06 A3011 RMK A01 T00620062  RH  100%=      5-min Rain = 0
KBO1 040725Z 00015KT 06/06 A3011 RMK A01 T00620062  RH  100%=      5-min Rain = 0
KBO1 040726Z 00015KT 06/06 A3011 RMK A01 T00620062  RH  100%=      5-min Rain = 0
KBO1 040727Z 00015KT 06/06 A3011 RMK A01 T00620062  RH  100%=      5-min Rain = 0
KBO1 040728Z 01014G20KT 06/06 A3011 RMK A01 T00620062  RH  100%=      5-min Rain = 0
KBO1 040729Z 00015KT 06/06 A3011 RMK A01 T00620062  RH  100%=      5-min Rain = 0
KBO1 040730Z 00014KT 06/06 A3011 RMK A01 T00620062  RH  100%=      5-min Rain = 0
KBO1 040731Z 00014KT 06/06 A3011 RMK A01 T00620062  RH  100%=      5-min Rain = 0
KBO1 040732Z 00015KT 06/06 A3011 RMK A01 T00620062  RH  100%=      5-min Rain = 0
KBO1 040733Z 01014KT 06/06 A3011 RMK A01 T00620062  RH  100%=      5-min Rain = 0
KBO1 040734Z 00014KT 06/06 A3011 RMK A01 T00620062  RH  100%=      5-min Rain = 0
KBO1 040735Z 00015KT 06/06 A3011 RMK A01 T00620062  RH  100%=      5-min Rain = 0
KBO1 040736Z 00013KT 06/06 A3011 RMK A01 T00620062  RH  100%=      5-min Rain = 0
KBO1 040737Z 00014G19KT 06/06 A3011 RMK A01 T00630063  RH  100%=      5-min Rain = 0
KBO1 040738Z 00016KT 06/06 A3011 RMK A01 T00630063  RH  100%=      5-min Rain = 0
KBO1 040739Z 01016KT 06/06 A3011 RMK A01 T00630063  RH  100%=      5-min Rain = 0
KBO1 040740Z 00015KT 06/06 A3011 RMK A01 T00630063  RH  100%=      5-min Rain = 0
KBO1 040741Z 00015KT 06/06 A3011 RMK A01 T00630063  RH  100%=      5-min Rain = 0
KBO1 040742Z 01015KT 06/06 A3011 RMK A01 T00630063  RH  100%=      5-min Rain = 0
KBO1 040743Z 00016KT 06/06 A3011 RMK A01 T00630063  RH  100%=      5-min Rain = 0
KBO1 040744Z 00017KT 06/06 A3011 RMK A01 T00620062  RH  100%=      5-min Rain = 0
KBO1 040745Z 01016KT 06/06 A3011 RMK A01 T00630063  RH  100%=      5-min Rain = 0
KBO1 040746Z 36016KT 06/06 A3011 RMK A01 T00630062  RH  100%=      5-min Rain = 0
KBO1 040747Z 00016KT 06/06 A3011 RMK A01 T00620061  RH  099%=      5-min Rain = 0
KBO1 040748Z 01015G20KT 06/06 A3011 RMK A01 T00630061  RH  099%=      5-min Rain = 0
KBO1 040749Z 00013KT 06/06 A3011 RMK A01 T00630061  RH  099%=      5-min Rain = 0
KBO1 040750Z 00012KT 06/06 A3011 RMK A01 T00630061  RH  099%=      5-min Rain = 0
KBO1 040751Z 36015KT 06/06 A3011 RMK A01 T00630062  RH  099%=      5-min Rain = 0
KBO1 040752Z 00016KT 06/06 A3011 RMK A01 T00620061  RH  099%=      5-min Rain = 0
KBO1 040753Z 00015KT 06/06 A3011 RMK A01 T00630060  RH  098%=      5-min Rain = 0
KBO1 040754Z 00014KT 06/06 A3011 RMK A01 T00630059  RH  098%=      5-min Rain = 0
KBO1 040755Z 00014KT 06/06 A3011 RMK A01 T00630059  RH  098%=      5-min Rain = 0
KBO1 040756Z 36014KT 06/06 A3011 RMK A01 T00620059  RH  098%=      5-min Rain = 0
KBO1 040757Z 36013KT 06/06 A3011 RMK A01 T00630059  RH  097%=      5-min Rain = 0
KBO1 040758Z 36014KT 06/06 A3011 RMK A01 T00630059  RH  098%=      5-min Rain = 0
KBO1 040759Z 36013KT 06/06 A3011 RMK A01 T00630059  RH  097%=      5-min Rain = 0
KBO1 040800Z 35012KT 06/06 A3011 RMK A01 T00620059  RH  098%=      5-min Rain = 0
KBO1 040801Z 35014KT 06/06 A3011 RMK A01 T00630059  RH  098%=      5-min Rain = 0
KBO1 040802Z 36012KT 06/06 A3012 RMK A01 T00630059  RH  097%=      5-min Rain = 0
KBO1 040803Z 35012KT 06/06 A3012 RMK A01 T00620059  RH  098%=      5-min Rain = 0
KBO1 040804Z 35015KT 06/06 A3012 RMK A01 T00630059  RH  098%=      5-min Rain = 0
KBO1 040805Z 35015KT 06/06 A3012 RMK A01 T00630058  RH  097%=      5-min Rain = 0
KBO1 040806Z 35014KT 06/06 A3012 RMK A01 T00630057  RH  097%=      5-min Rain = 0
KBO1 040807Z 36014KT 06/06 A3012 RMK A01 T00630057  RH  096%=      5-min Rain = 0
KBO1 040808Z 35014KT 06/06 A3012 RMK A01 T00630058  RH  097%=      5-min Rain = 0
KBO1 040809Z 35014KT 06/06 A3012 RMK A01 T00630058  RH  096%=      5-min Rain = 0
KBO1 040810Z 35014KT 06/06 A3012 RMK A01 T00630057  RH  096%=      5-min Rain = 0
KBO1 040811Z 35015KT 06/06 A3012 RMK A01 T00630058  RH  097%=      5-min Rain = 0
KBO1 040812Z 35013KT 06/06 A3012 RMK A01 T00630057  RH  096%=      5-min Rain = 0
KBO1 040813Z 35015KT 06/06 A3012 RMK A01 T00630057  RH  096%=      5-min Rain = 0
KBO1 040814Z 35014KT 06/06 A3012 RMK A01 T00630057  RH  096%=      5-min Rain = 0
KBO1 040815Z 35013KT 06/06 A3012 RMK A01 T00630057  RH  096%=      5-min Rain = 0
KBO1 040816Z 36012KT 06/06 A3012 RMK A01 T00630057  RH  096%=      5-min Rain = 0
KBO1 040817Z 36014KT 06/06 A3012 RMK A01 T00630058  RH  097%=      5-min Rain = 0
KBO1 040818Z 36013KT 06/06 A3012 RMK A01 T00630058  RH  097%=      5-min Rain = 0
KBO1 040819Z 35012KT 06/06 A3012 RMK A01 T00630057  RH  096%=      5-min Rain = 0
KBO1 040820Z 36012KT 06/06 A3012 RMK A01 T00630057  RH  097%=      5-min Rain = 0
KBO1 040821Z 36012KT 06/06 A3012 RMK A01 T00630057  RH  097%=      5-min Rain = 0
KBO1 040822Z 35012G17KT 06/06 A3012 RMK A01 T00630057  RH  096%=      5-min Rain = 0
KBO1 040823Z 35012KT 06/06 A3012 RMK A01 T00630057  RH  096%=      5-min Rain = 0
KBO1 040824Z 35011G16KT 06/06 A3012 RMK A01 T00630056  RH  096%=      5-min Rain = 0
KBO1 040825Z 35014KT 06/06 A3012 RMK A01 T00630057  RH  096%=      5-min Rain = 0
KBO1 040826Z 35013KT 06/06 A3012 RMK A01 T00630056  RH  095%=      5-min Rain = 0
KBO1 040827Z 36013KT 06/06 A3012 RMK A01 T00630056  RH  095%=      5-min Rain = 0
KBO1 040828Z 35012KT 06/06 A3012 RMK A01 T00630056  RH  095%=      5-min Rain = 0
KBO1 040829Z 35010KT 06/06 A3012 RMK A01 T00630056  RH  096%=      5-min Rain = 0
KBO1 040830Z 35012KT 06/06 A3012 RMK A01 T00630057  RH  096%=      5-min Rain = 0
KBO1 040831Z 35012KT 06/06 A3012 RMK A01 T00630056  RH  096%=      5-min Rain = 0
KBO1 040832Z 36013KT 06/06 A3012 RMK A01 T00630056  RH  095%=      5-min Rain = 0
KBO1 040833Z 36012KT 06/06 A3011 RMK A01 T00630055  RH  095%=      5-min Rain = 0
KBO1 040834Z 35014KT 06/06 A3011 RMK A01 T00630055  RH  095%=      5-min Rain = 0
KBO1 040835Z 35013KT 06/06 A3011 RMK A01 T00630055  RH  095%=      5-min Rain = 0
KBO1 040836Z 35012KT 06/05 A3012 RMK A01 T00630054  RH  094%=      5-min Rain = 0
KBO1 040837Z 35012KT 06/06 A3012 RMK A01 T00630055  RH  095%=      5-min Rain = 0
KBO1 040838Z 36011KT 06/06 A3012 RMK A01 T00630055  RH  095%=      5-min Rain = 0
KBO1 040839Z 35012KT 06/06 A3012 RMK A01 T00630056  RH  095%=      5-min Rain = 0
KBO1 040840Z 35012KT 06/06 A3012 RMK A01 T00630055  RH  095%=      5-min Rain = 0
KBO1 040841Z 35011KT 06/06 A3012 RMK A01 T00630055  RH  094%=      5-min Rain = 0
KBO1 040842Z 36011KT 06/06 A3012 RMK A01 T00630055  RH  094%=      5-min Rain = 0
KBO1 040843Z 35011KT 06/06 A3012 RMK A01 T00630055  RH  095%=      5-min Rain = 0
KBO1 040844Z 00013KT 06/06 A3012 RMK A01 T00630055  RH  095%=      5-min Rain = 0
KBO1 040845Z 35012KT 06/05 A3012 RMK A01 T00630054  RH  094%=      5-min Rain = 0
KBO1 040846Z 35011KT 06/05 A3012 RMK A01 T00630054  RH  094%=      5-min Rain = 0
KBO1 040847Z 36012KT 06/05 A3012 RMK A01 T00630054  RH  094%=      5-min Rain = 0
KBO1 040848Z 36011KT 06/05 A3012 RMK A01 T00630054  RH  094%=      5-min Rain = 0
KBO1 040849Z 36013KT 06/05 A3012 RMK A01 T00630054  RH  094%=      5-min Rain = 0
KBO1 040850Z 36014KT 06/05 A3012 RMK A01 T00630053  RH  093%=      5-min Rain = 0
KBO1 040851Z 35013KT 06/05 A3012 RMK A01 T00630052  RH  093%=      5-min Rain = 0
KBO1 040852Z 36012KT 06/05 A3012 RMK A01 T00630053  RH  093%=      5-min Rain = 0
KBO1 040853Z 36012KT 06/05 A3012 RMK A01 T00630053  RH  093%=      5-min Rain = 0
KBO1 040854Z 00012KT 06/05 A3012 RMK A01 T00630054  RH  093%=      5-min Rain = 0
KBO1 040855Z 36011KT 06/05 A3012 RMK A01 T00640054  RH  094%=      5-min Rain = 0
KBO1 040856Z 36011KT 06/06 A3012 RMK A01 T00630055  RH  094%=      5-min Rain = 0
KBO1 040857Z 36013KT 06/05 A3012 RMK A01 T00640053  RH  093%=      5-min Rain = 0
KBO1 040858Z 36011KT 06/05 A3012 RMK A01 T00630052  RH  093%=      5-min Rain = 0
KBO1 040859Z 36013KT 06/05 A3012 RMK A01 T00640053  RH  093%=      5-min Rain = 0
KBO1 040900Z 00011KT 06/05 A3012 RMK A01 T00640053  RH  093%=      5-min Rain = 0
KBO1 040901Z 36013KT 06/05 A3012 RMK A01 T00630053  RH  093%=      5-min Rain = 0
KBO1 040902Z 36013KT 06/05 A3012 RMK A01 T00630053  RH  093%=      5-min Rain = 0
KBO1 040903Z 35012KT 06/05 A3012 RMK A01 T00630053  RH  093%=      5-min Rain = 0
KBO1 040904Z 36013KT 06/05 A3012 RMK A01 T00640053  RH  093%=      5-min Rain = 0
KBO1 040905Z 36013KT 06/05 A3012 RMK A01 T00630052  RH  093%=      5-min Rain = 0
KBO1 040906Z 35013KT 06/05 A3012 RMK A01 T00630052  RH  093%=      5-min Rain = 0
KBO1 040907Z 00013KT 06/05 A3012 RMK A01 T00630052  RH  093%=      5-min Rain = 0
KBO1 040908Z 36011KT 06/05 A3012 RMK A01 T00630051  RH  092%=      5-min Rain = 0
KBO1 040909Z 36012KT 06/05 A3012 RMK A01 T00630052  RH  093%=      5-min Rain = 0
KBO1 040910Z 00011KT 06/05 A3012 RMK A01 T00630052  RH  093%=      5-min Rain = 0
KBO1 040911Z 00011KT 06/05 A3012 RMK A01 T00630053  RH  093%=      5-min Rain = 0
KBO1 040912Z 36010KT 06/05 A3012 RMK A01 T00630053  RH  094%=      5-min Rain = 0
KBO1 040913Z 36012KT 06/05 A3012 RMK A01 T00620053  RH  094%=      5-min Rain = 0
KBO1 040914Z 35012KT 06/05 A3012 RMK A01 T00620052  RH  093%=      5-min Rain = 0
KBO1 040915Z 36012KT 06/05 A3012 RMK A01 T00620051  RH  093%=      5-min Rain = 0
KBO1 040916Z 35011KT 06/05 A3012 RMK A01 T00620051  RH  093%=      5-min Rain = 0
KBO1 040917Z 36012KT 06/05 A3012 RMK A01 T00620051  RH  093%=      5-min Rain = 0
KBO1 040918Z 35012KT 06/05 A3012 RMK A01 T00620051  RH  093%=      5-min Rain = 0
KBO1 040919Z 35012KT 06/05 A3012 RMK A01 T00620051  RH  093%=      5-min Rain = 0
KBO1 040920Z 36012KT 06/05 A3012 RMK A01 T00610050  RH  092%=      5-min Rain = 0
KBO1 040921Z 36013KT 06/05 A3012 RMK A01 T00610050  RH  092%=      5-min Rain = 0
KBO1 040922Z 36013KT 06/05 A3012 RMK A01 T00610050  RH  092%=      5-min Rain = 0
KBO1 040923Z 00013KT 06/05 A3012 RMK A01 T00610050  RH  092%=      5-min Rain = 0
KBO1 040924Z 00012KT 06/05 A3012 RMK A01 T00610049  RH  092%=      5-min Rain = 0
KBO1 040925Z 00014KT 06/05 A3012 RMK A01 T00600049  RH  093%=      5-min Rain = 0
KBO1 040926Z 00013KT 06/05 A3012 RMK A01 T00600048  RH  092%=      5-min Rain = 0
KBO1 040927Z 00013KT 06/05 A3012 RMK A01 T00600049  RH  092%=      5-min Rain = 0
KBO1 040928Z 00012KT 06/05 A3012 RMK A01 T00600049  RH  092%=      5-min Rain = 0
KBO1 040929Z 36011KT 06/05 A3012 RMK A01 T00590048  RH  093%=      5-min Rain = 0
KBO1 040930Z 36012KT 06/05 A3012 RMK A01 T00590049  RH  093%=      5-min Rain = 0
KBO1 040931Z 35013KT 06/05 A3012 RMK A01 T00580049  RH  094%=      5-min Rain = 0
KBO1 040932Z 36014KT 06/05 A3012 RMK A01 T00580049  RH  094%=      5-min Rain = 0
KBO1 040933Z 36013KT 06/05 A3012 RMK A01 T00580048  RH  093%=      5-min Rain = 0
KBO1 040934Z 36012KT 06/05 A3012 RMK A01 T00580048  RH  093%=      5-min Rain = 0
KBO1 040935Z 36012KT 06/05 A3012 RMK A01 T00580048  RH  093%=      5-min Rain = 0
KBO1 040936Z 35012KT 06/05 A3012 RMK A01 T00580048  RH  094%=      5-min Rain = 0
KBO1 040937Z 36013KT 06/05 A3012 RMK A01 T00570048  RH  094%=      5-min Rain = 0
KBO1 040938Z 36011KT 06/05 A3012 RMK A01 T00570047  RH  094%=      5-min Rain = 0
KBO1 040939Z 35011KT 06/05 A3012 RMK A01 T00570047  RH  094%=      5-min Rain = 0
KBO1 040940Z 35011KT 06/05 A3012 RMK A01 T00560047  RH  094%=      5-min Rain = 0
KBO1 040941Z 35010KT 06/05 A3012 RMK A01 T00560048  RH  094%=      5-min Rain = 0
KBO1 040942Z 35011KT 06/05 A3012 RMK A01 T00550047  RH  095%=      5-min Rain = 0
KBO1 040943Z 35011KT 06/05 A3012 RMK A01 T00550048  RH  095%=      5-min Rain = 0
KBO1 040944Z 35010KT 06/05 A3013 RMK A01 T00550048  RH  095%=      5-min Rain = 0
KBO1 040945Z 34010KT 05/05 A3013 RMK A01 T00540047  RH  095%=      5-min Rain = 0
KBO1 040946Z 35012KT 05/05 A3013 RMK A01 T00540047  RH  096%=      5-min Rain = 0
KBO1 040947Z 34012KT 05/05 A3013 RMK A01 T00540048  RH  096%=      5-min Rain = 0
KBO1 040948Z 34011KT 05/05 A3013 RMK A01 T00540048  RH  096%=      5-min Rain = 0
KBO1 040949Z 34011KT 05/05 A3013 RMK A01 T00540048  RH  096%=      5-min Rain = 0
KBO1 040950Z 34011KT 05/05 A3013 RMK A01 T00540048  RH  096%=      5-min Rain = 0
KBO1 040951Z 35011KT 05/05 A3013 RMK A01 T00540047  RH  096%=      5-min Rain = 0
KBO1 040952Z 34010KT 05/05 A3013 RMK A01 T00540048  RH  096%=      5-min Rain = 0
KBO1 040953Z 35010KT 05/05 A3013 RMK A01 T00540047  RH  096%=      5-min Rain = 0
KBO1 040954Z 34010KT 05/05 A3013 RMK A01 T00540048  RH  096%=      5-min Rain = 0
KBO1 040955Z 34010KT 05/05 A3013 RMK A01 T00530048  RH  096%=      5-min Rain = 0
KBO1 040956Z 34011KT 05/05 A3013 RMK A01 T00540049  RH  097%=      5-min Rain = 0
KBO1 040957Z 34010KT 05/05 A3013 RMK A01 T00530049  RH  097%=      5-min Rain = 0
KBO1 040958Z 34011KT 05/05 A3013 RMK A01 T00530049  RH  097%=      5-min Rain = 0
KBO1 040959Z 34012KT 05/05 A3013 RMK A01 T00530049  RH  097%=      5-min Rain = 0
KBO1 041000Z 34011KT 05/05 A3013 RMK A01 T00540049  RH  097%=      5-min Rain = 0
KBO1 041001Z 34011KT 05/05 A3013 RMK A01 T00540049  RH  097%=      5-min Rain = 0
KBO1 041002Z 34011KT 05/05 A3013 RMK A01 T00540049  RH  096%=      5-min Rain = 0
KBO1 041003Z 34010KT 05/05 A3013 RMK A01 T00540049  RH  096%=      5-min Rain = 0
KBO1 041004Z 35011KT 05/05 A3013 RMK A01 T00530049  RH  097%=      5-min Rain = 0
KBO1 041005Z 34010KT 05/05 A3013 RMK A01 T00530049  RH  097%=      5-min Rain = 0
KBO1 041006Z 34010KT 05/05 A3013 RMK A01 T00530049  RH  097%=      5-min Rain = 0
KBO1 041007Z 34011KT 05/05 A3013 RMK A01 T00530049  RH  097%=      5-min Rain = 0
KBO1 041008Z 34010KT 05/05 A3013 RMK A01 T00540049  RH  097%=      5-min Rain = 0
KBO1 041009Z 34011KT 05/05 A3013 RMK A01 T00530049  RH  097%=      5-min Rain = 0
KBO1 041010Z 35011KT 05/05 A3013 RMK A01 T00540050  RH  097%=      5-min Rain = 0
KBO1 041011Z 35011KT 05/05 A3013 RMK A01 T00530049  RH  097%=      5-min Rain = 0
KBO1 041012Z 35011KT 05/05 A3013 RMK A01 T00530049  RH  097%=      5-min Rain = 0
KBO1 041013Z 35011KT 05/05 A3013 RMK A01 T00540050  RH  097%=      5-min Rain = 0
KBO1 041014Z 34012KT 05/05 A3013 RMK A01 T00530049  RH  097%=      5-min Rain = 0
KBO1 041015Z 34012KT 05/05 A3013 RMK A01 T00530049  RH  097%=      5-min Rain = 0
KBO1 041016Z 35011KT 05/05 A3013 RMK A01 T00530049  RH  097%=      5-min Rain = 0
KBO1 041017Z 34011KT 05/05 A3013 RMK A01 T00530049  RH  097%=      5-min Rain = 0
KBO1 041018Z 34011KT 05/05 A3013 RMK A01 T00530049  RH  097%=      5-min Rain = 0
KBO1 041019Z 34010KT 05/05 A3013 RMK A01 T00530048  RH  097%=      5-min Rain = 0
KBO1 041020Z 34010KT 05/05 A3014 RMK A01 T00530048  RH  097%=      5-min Rain = 0
KBO1 041021Z 34010KT 05/05 A3014 RMK A01 T00530048  RH  097%=      5-min Rain = 0
KBO1 041022Z 34010KT 05/05 A3014 RMK A01 T00520048  RH  097%=      5-min Rain = 0
KBO1 041023Z 34010KT 05/05 A3014 RMK A01 T00520048  RH  097%=      5-min Rain = 0
KBO1 041024Z 34010KT 05/05 A3014 RMK A01 T00510048  RH  097%=      5-min Rain = 0
KBO1 041025Z 34011KT 05/05 A3014 RMK A01 T00510048  RH  098%=      5-min Rain = 0
KBO1 041026Z 34010KT 05/05 A3014 RMK A01 T00510048  RH  098%=      5-min Rain = 0
KBO1 041027Z 34010KT 05/05 A3014 RMK A01 T00510047  RH  098%=      5-min Rain = 0
KBO1 041028Z 34011KT 05/05 A3014 RMK A01 T00510047  RH  098%=      5-min Rain = 0
KBO1 041029Z 34010KT 05/05 A3014 RMK A01 T00500047  RH  098%=      5-min Rain = 0
KBO1 041030Z 34010KT 05/05 A3014 RMK A01 T00500047  RH  097%=      5-min Rain = 0
KBO1 041031Z 34011KT 05/05 A3014 RMK A01 T00500046  RH  097%=      5-min Rain = 0
KBO1 041032Z 34010KT 05/05 A3014 RMK A01 T00500046  RH  097%=      5-min Rain = 0
KBO1 041033Z 34010KT 05/05 A3015 RMK A01 T00500046  RH  097%=      5-min Rain = 0
KBO1 041034Z 34010KT 05/05 A3015 RMK A01 T00490045  RH  097%=      5-min Rain = 0
KBO1 041035Z 34009KT 05/05 A3015 RMK A01 T00490045  RH  097%=      5-min Rain = 0
KBO1 041036Z 34009KT 05/05 A3015 RMK A01 T00490046  RH  098%=      5-min Rain = 0
KBO1 041037Z 34009KT 05/05 A3015 RMK A01 T00490046  RH  098%=      5-min Rain = 0
KBO1 041038Z 34010KT 05/05 A3015 RMK A01 T00490047  RH  098%=      5-min Rain = 0
KBO1 041039Z 34010KT 05/05 A3015 RMK A01 T00490047  RH  098%=      5-min Rain = 0
KBO1 041040Z 34010KT 05/05 A3015 RMK A01 T00500047  RH  098%=      5-min Rain = 0
KBO1 041041Z 34008KT 05/05 A3015 RMK A01 T00500047  RH  098%=      5-min Rain = 0
KBO1 041042Z 34009KT 05/05 A3015 RMK A01 T00500047  RH  098%=      5-min Rain = 0
KBO1 041043Z 34009KT 05/05 A3015 RMK A01 T00500047  RH  098%=      5-min Rain = 0
KBO1 041044Z 34009KT 05/05 A3015 RMK A01 T00500047  RH  098%=      5-min Rain = 0
KBO1 041045Z 34009KT 05/05 A3015 RMK A01 T00500047  RH  098%=      5-min Rain = 0
KBO1 041046Z 33010KT 05/05 A3015 RMK A01 T00500046  RH  098%=      5-min Rain = 0
KBO1 041047Z 33008KT 05/05 A3015 RMK A01 T00500046  RH  098%=      5-min Rain = 0
KBO1 041048Z 34009KT 05/05 A3015 RMK A01 T00500046  RH  097%=      5-min Rain = 0
KBO1 041049Z 33009KT 05/05 A3015 RMK A01 T00500046  RH  097%=      5-min Rain = 0
KBO1 041050Z 33010KT 05/05 A3015 RMK A01 T00500046  RH  097%=      5-min Rain = 0
KBO1 041051Z 34009KT 05/05 A3015 RMK A01 T00500045  RH  097%=      5-min Rain = 0
KBO1 041052Z 34009KT 05/05 A3015 RMK A01 T00500046  RH  097%=      5-min Rain = 0
KBO1 041053Z 34009KT 05/05 A3015 RMK A01 T00500045  RH  097%=      5-min Rain = 0
KBO1 041054Z 34008KT 05/05 A3015 RMK A01 T00500046  RH  097%=      5-min Rain = 0
KBO1 041055Z 34009KT 05/05 A3015 RMK A01 T00500045  RH  097%=      5-min Rain = 0
KBO1 041056Z 34009KT 05/05 A3015 RMK A01 T00500046  RH  097%=      5-min Rain = 0
KBO1 041057Z 34009KT 05/05 A3015 RMK A01 T00500045  RH  097%=      5-min Rain = 0
KBO1 041058Z 34009KT 05/05 A3015 RMK A01 T00500045  RH  097%=      5-min Rain = 0
KBO1 041059Z 34008KT 05/04 A3015 RMK A01 T00490044  RH  097%=      5-min Rain = 0
KBO1 041100Z 34008KT 05/05 A3015 RMK A01 T00490045  RH  097%=      5-min Rain = 0
KBO1 041101Z 34008KT 05/05 A3015 RMK A01 T00490045  RH  097%=      5-min Rain = 0
KBO1 041102Z 34007KT 05/05 A3015 RMK A01 T00490045  RH  097%=      5-min Rain = 0
KBO1 041103Z 34007KT 05/04 A3015 RMK A01 T00480044  RH  098%=      5-min Rain = 0
KBO1 041104Z 34008KT 05/04 A3015 RMK A01 T00480044  RH  098%=      5-min Rain = 0
KBO1 041105Z 34008KT 05/05 A3015 RMK A01 T00470045  RH  098%=      5-min Rain = 0
KBO1 041106Z 34008KT 05/05 A3015 RMK A01 T00480045  RH  098%=      5-min Rain = 0
KBO1 041107Z 34008KT 05/05 A3015 RMK A01 T00470045  RH  098%=      5-min Rain = 0
KBO1 041108Z 34008KT 05/05 A3015 RMK A01 T00480045  RH  098%=      5-min Rain = 0
KBO1 041109Z 34008KT 05/05 A3015 RMK A01 T00470045  RH  098%=      5-min Rain = 0
KBO1 041110Z 34007KT 05/05 A3015 RMK A01 T00470045  RH  098%=      5-min Rain = 0
KBO1 041111Z 34008KT 05/05 A3015 RMK A01 T00470045  RH  099%=      5-min Rain = 0
KBO1 041112Z 35008KT 05/05 A3015 RMK A01 T00470045  RH  099%=      5-min Rain = 0
KBO1 041113Z 34008KT 05/05 A3015 RMK A01 T00470045  RH  099%=      5-min Rain = 0
KBO1 041114Z 34008KT 05/05 A3015 RMK A01 T00460045  RH  099%=      5-min Rain = 0
KBO1 041115Z 34007KT 05/05 A3015 RMK A01 T00460045  RH  099%=      5-min Rain = 0
KBO1 041116Z 34008KT 05/05 A3015 RMK A01 T00460045  RH  099%=      5-min Rain = 0
KBO1 041117Z 34008KT 05/05 A3015 RMK A01 T00460046  RH  100%=      5-min Rain = 0
KBO1 041118Z 34008KT 05/05 A3016 RMK A01 T00460046  RH  100%=      5-min Rain = 0
KBO1 041119Z 34008KT 05/05 A3016 RMK A01 T00460046  RH  100%=      5-min Rain = 0
KBO1 041120Z 34008KT 05/05 A3016 RMK A01 T00470047  RH  100%=      5-min Rain = 0
KBO1 041121Z 34008KT 05/05 A3016 RMK A01 T00470047  RH  100%=      5-min Rain = 0
KBO1 041122Z 34007KT 05/05 A3016 RMK A01 T00480048  RH  100%=      5-min Rain = 0
KBO1 041123Z 34007KT 05/05 A3016 RMK A01 T00480048  RH  100%=      5-min Rain = 0
KBO1 041124Z 34007KT 05/05 A3016 RMK A01 T00490049  RH  100%=      5-min Rain = 0
KBO1 041125Z 34007KT 05/05 A3016 RMK A01 T00480048  RH  100%=      5-min Rain = 0
KBO1 041126Z 34007KT 05/05 A3016 RMK A01 T00490049  RH  100%=      5-min Rain = 0
KBO1 041127Z 34008KT 05/05 A3016 RMK A01 T00490049  RH  100%=      5-min Rain = 0
KBO1 041128Z 35007KT 05/05 A3016 RMK A01 T00500050  RH  100%=      5-min Rain = 0
KBO1 041129Z 35007KT 05/05 A3016 RMK A01 T00500049  RH  100%=      5-min Rain = 0
KBO1 041130Z 34009KT 05/05 A3016 RMK A01 T00500050  RH  100%=      5-min Rain = 0
KBO1 041131Z 35008KT 05/05 A3016 RMK A01 T00500049  RH  099%=      5-min Rain = 0
KBO1 041132Z 35009KT 05/05 A3016 RMK A01 T00510049  RH  099%=      5-min Rain = 0
KBO1 041133Z 35008KT 05/05 A3016 RMK A01 T00510049  RH  099%=      5-min Rain = 0
KBO1 041134Z 34009KT 05/05 A3016 RMK A01 T00510049  RH  098%=      5-min Rain = 0
KBO1 041135Z 35009KT 05/05 A3016 RMK A01 T00510049  RH  098%=      5-min Rain = 0
KBO1 041136Z 35010KT 05/05 A3016 RMK A01 T00510049  RH  098%=      5-min Rain = 0
KBO1 041137Z 34008KT 05/05 A3016 RMK A01 T00520049  RH  098%=      5-min Rain = 0
KBO1 041138Z 34009KT 05/05 A3016 RMK A01 T00520049  RH  098%=      5-min Rain = 0
KBO1 041139Z 34009KT 05/05 A3016 RMK A01 T00520049  RH  098%=      5-min Rain = 0
KBO1 041140Z 34008KT 05/05 A3016 RMK A01 T00530049  RH  098%=      5-min Rain = 0
KBO1 041141Z 34009KT 05/05 A3016 RMK A01 T00520049  RH  097%=      5-min Rain = 0
KBO1 041142Z 34009KT 05/05 A3016 RMK A01 T00520049  RH  097%=      5-min Rain = 0
KBO1 041143Z 34009KT 05/05 A3016 RMK A01 T00520049  RH  097%=      5-min Rain = 0
KBO1 041144Z 34010KT 05/05 A3016 RMK A01 T00520049  RH  097%=      5-min Rain = 0
KBO1 041145Z 35010KT 05/05 A3016 RMK A01 T00530049  RH  097%=      5-min Rain = 0
KBO1 041146Z 34009KT 05/05 A3016 RMK A01 T00530048  RH  097%=      5-min Rain = 0
KBO1 041147Z 34009KT 05/05 A3016 RMK A01 T00530048  RH  097%=      5-min Rain = 0
KBO1 041148Z 34009KT 05/05 A3016 RMK A01 T00530049  RH  097%=      5-min Rain = 0
KBO1 041149Z 34010KT 05/05 A3016 RMK A01 T00530049  RH  097%=      5-min Rain = 0
KBO1 041150Z 34010KT 05/05 A3016 RMK A01 T00530049  RH  097%=      5-min Rain = 0
KBO1 041151Z 34011KT 05/05 A3016 RMK A01 T00530049  RH  097%=      5-min Rain = 0
KBO1 041152Z 34010KT 05/05 A3016 RMK A01 T00530048  RH  097%=      5-min Rain = 0
KBO1 041153Z 34011KT 05/05 A3016 RMK A01 T00530048  RH  097%=      5-min Rain = 0
KBO1 041154Z 34011KT 05/05 A3016 RMK A01 T00530048  RH  096%=      5-min Rain = 0
KBO1 041155Z 34010KT 05/05 A3016 RMK A01 T00530048  RH  096%=      5-min Rain = 0
KBO1 041156Z 34011KT 05/05 A3016 RMK A01 T00530048  RH  097%=      5-min Rain = 0
KBO1 041157Z 34011KT 05/05 A3016 RMK A01 T00530048  RH  097%=      5-min Rain = 0
KBO1 041158Z 34012KT 05/05 A3016 RMK A01 T00530048  RH  097%=      5-min Rain = 0
KBO1 041159Z 34011KT 05/05 A3016 RMK A01 T00530048  RH  097%=      5-min Rain = 0
KBO1 041200Z 34012KT 05/05 A3016 RMK A01 T00530048  RH  097%=      5-min Rain = 0
KBO1 041201Z 35011KT 05/05 A3016 RMK A01 T00520048  RH  097%=      5-min Rain = 0
KBO1 041202Z 35011KT 05/05 A3016 RMK A01 T00520048  RH  097%=      5-min Rain = 0
KBO1 041203Z 35010KT 05/05 A3016 RMK A01 T00520048  RH  097%=      5-min Rain = 0
KBO1 041204Z 35010KT 05/05 A3016 RMK A01 T00510047  RH  097%=      5-min Rain = 0
KBO1 041205Z 35011KT 05/05 A3016 RMK A01 T00510048  RH  097%=      5-min Rain = 0
KBO1 041206Z 35011KT 05/05 A3016 RMK A01 T00510047  RH  097%=      5-min Rain = 0
KBO1 041207Z 35010KT 05/05 A3016 RMK A01 T00510047  RH  097%=      5-min Rain = 0
KBO1 041208Z 35010KT 05/05 A3016 RMK A01 T00510047  RH  097%=      5-min Rain = 0
KBO1 041209Z 35011KT 05/05 A3016 RMK A01 T00510047  RH  097%=      5-min Rain = 0
KBO1 041210Z 35010KT 05/05 A3016 RMK A01 T00500047  RH  098%=      5-min Rain = 0
KBO1 041211Z 35011KT 05/05 A3016 RMK A01 T00500047  RH  098%=      5-min Rain = 0
KBO1 041212Z 35010KT 05/05 A3016 RMK A01 T00500047  RH  098%=      5-min Rain = 0
KBO1 041213Z 35010KT 05/05 A3016 RMK A01 T00500047  RH  098%=      5-min Rain = 0
KBO1 041214Z 35010KT 05/05 A3016 RMK A01 T00500046  RH  097%=      5-min Rain = 0
KBO1 041215Z 35010KT 05/05 A3016 RMK A01 T00500046  RH  097%=      5-min Rain = 0
KBO1 041216Z 35010KT 05/05 A3016 RMK A01 T00500045  RH  097%=      5-min Rain = 0
KBO1 041217Z 35009KT 05/05 A3016 RMK A01 T00500045  RH  097%=      5-min Rain = 0
KBO1 041218Z 35009KT 05/05 A3016 RMK A01 T00500045  RH  097%=      5-min Rain = 0
KBO1 041219Z 35009KT 05/05 A3016 RMK A01 T00500045  RH  097%=      5-min Rain = 0
KBO1 041220Z 35009KT 05/05 A3016 RMK A01 T00500045  RH  097%=      5-min Rain = 0
KBO1 041221Z 35009KT 05/05 A3016 RMK A01 T00490045  RH  097%=      5-min Rain = 0
KBO1 041222Z 35008KT 05/05 A3016 RMK A01 T00490045  RH  097%=      5-min Rain = 0
KBO1 041223Z 35009KT 05/05 A3016 RMK A01 T00500045  RH  097%=      5-min Rain = 0
KBO1 041224Z 35008KT 05/05 A3017 RMK A01 T00500045  RH  097%=      5-min Rain = 0
KBO1 041225Z 34009KT 05/05 A3017 RMK A01 T00500045  RH  097%=      5-min Rain = 0
KBO1 041226Z 34009KT 05/05 A3017 RMK A01 T00500045  RH  096%=      5-min Rain = 0
KBO1 041227Z 34009KT 05/05 A3017 RMK A01 T00510045  RH  096%=      5-min Rain = 0
KBO1 041228Z 34009KT 05/05 A3017 RMK A01 T00510045  RH  096%=      5-min Rain = 0
KBO1 041229Z 34009KT 05/05 A3017 RMK A01 T00510045  RH  096%=      5-min Rain = 0
KBO1 041230Z 34009KT 05/05 A3017 RMK A01 T00510045  RH  096%=      5-min Rain = 0
KBO1 041231Z 34009KT 05/05 A3017 RMK A01 T00500045  RH  096%=      5-min Rain = 0
KBO1 041232Z 34009KT 05/04 A3017 RMK A01 T00500044  RH  096%=      5-min Rain = 0
KBO1 041233Z 34009KT 05/04 A3017 RMK A01 T00500044  RH  096%=      5-min Rain = 0
KBO1 041234Z 34008KT 05/05 A3017 RMK A01 T00500045  RH  096%=      5-min Rain = 0
KBO1 041235Z 34009KT 05/05 A3017 RMK A01 T00500045  RH  096%=      5-min Rain = 0
KBO1 041236Z 34009KT 05/05 A3017 RMK A01 T00510045  RH  096%=      5-min Rain = 0
KBO1 041237Z 34008KT 05/05 A3017 RMK A01 T00510046  RH  096%=      5-min Rain = 0
KBO1 041238Z 34009KT 05/05 A3017 RMK A01 T00520046  RH  096%=      5-min Rain = 0
KBO1 041239Z 34009KT 05/05 A3017 RMK A01 T00520046  RH  096%=      5-min Rain = 0
KBO1 041240Z 34008KT 05/05 A3018 RMK A01 T00520046  RH  096%=      5-min Rain = 0
KBO1 041241Z 34008KT 05/05 A3018 RMK A01 T00530046  RH  096%=      5-min Rain = 0
KBO1 041242Z 34008KT 05/05 A3018 RMK A01 T00530047  RH  096%=      5-min Rain = 0
KBO1 041243Z 34008KT 05/05 A3018 RMK A01 T00540047  RH  095%=      5-min Rain = 0
KBO1 041244Z 34008KT 05/05 A3018 RMK A01 T00540046  RH  095%=      5-min Rain = 0
KBO1 041245Z 33009KT 05/05 A3018 RMK A01 T00540046  RH  095%=      5-min Rain = 0
KBO1 041246Z 34009KT 05/05 A3018 RMK A01 T00540046  RH  094%=      5-min Rain = 0
KBO1 041247Z 33008KT 06/05 A3018 RMK A01 T00550046  RH  094%=      5-min Rain = 0
KBO1 041248Z 33007KT 06/05 A3018 RMK A01 T00560048  RH  095%=      5-min Rain = 0
KBO1 041249Z 33008KT 06/05 A3018 RMK A01 T00560048  RH  095%=      5-min Rain = 0
KBO1 041250Z 33009KT 06/05 A3018 RMK A01 T00570047  RH  094%=      5-min Rain = 0
KBO1 041251Z 33009KT 06/05 A3018 RMK A01 T00570047  RH  093%=      5-min Rain = 0
KBO1 041252Z 34010KT 06/05 A3018 RMK A01 T00570046  RH  092%=      5-min Rain = 0
KBO1 041253Z 33010KT 06/05 A3018 RMK A01 T00580045  RH  091%=      5-min Rain = 0
KBO1 041254Z 33008KT 06/05 A3018 RMK A01 T00580046  RH  092%=      5-min Rain = 0
KBO1 041255Z 33008KT 06/05 A3019 RMK A01 T00590047  RH  092%=      5-min Rain = 0
KBO1 041256Z 33008KT 06/05 A3019 RMK A01 T00590046  RH  092%=      5-min Rain = 0
KBO1 041257Z 34009KT 06/05 A3019 RMK A01 T00590047  RH  092%=      5-min Rain = 0
KBO1 041258Z 33007KT 06/05 A3019 RMK A01 T00600048  RH  092%=      5-min Rain = 0
KBO1 041259Z 34008KT 06/05 A3019 RMK A01 T00610049  RH  092%=      5-min Rain = 0
KBO1 041300Z 34010KT 06/05 A3019 RMK A01 T00610047  RH  091%=      5-min Rain = 0
KBO1 041301Z 33010KT 06/05 A3019 RMK A01 T00610045  RH  090%=      5-min Rain = 0
KBO1 041302Z 33010KT 06/05 A3019 RMK A01 T00610045  RH  089%=      5-min Rain = 0
KBO1 041303Z 33009KT 06/05 A3019 RMK A01 T00610046  RH  090%=      5-min Rain = 0
KBO1 041304Z 33009KT 06/05 A3019 RMK A01 T00620048  RH  091%=      5-min Rain = 0
KBO1 041305Z 33012KT 06/05 A3019 RMK A01 T00630048  RH  090%=      5-min Rain = 0
KBO1 041306Z 33011KT 06/05 A3019 RMK A01 T00630045  RH  088%=      5-min Rain = 0
KBO1 041307Z 33010KT 06/04 A3019 RMK A01 T00620044  RH  088%=      5-min Rain = 0
KBO1 041308Z 33010KT 06/05 A3019 RMK A01 T00620046  RH  089%=      5-min Rain = 0
KBO1 041309Z 33010KT 06/04 A3019 RMK A01 T00620044  RH  089%=      5-min Rain = 0
KBO1 041310Z 32010KT 06/04 A302 RMK A01 T00620044  RH  089%=      5-min Rain = 0
KBO1 041311Z 33010KT 06/04 A302 RMK A01 T00610043  RH  088%=      5-min Rain = 0
KBO1 041312Z 32009KT 06/04 A302 RMK A01 T00600043  RH  089%=      5-min Rain = 0
KBO1 041313Z 33011KT 06/04 A302 RMK A01 T00600043  RH  089%=      5-min Rain = 0
KBO1 041314Z 32009KT 06/04 A302 RMK A01 T00590040  RH  087%=      5-min Rain = 0
KBO1 041315Z 32008KT 06/04 A302 RMK A01 T00590041  RH  088%=      5-min Rain = 0
KBO1 041316Z 33008KT 06/04 A302 RMK A01 T00590043  RH  089%=      5-min Rain = 0
KBO1 041317Z 33007KT 06/04 A302 RMK A01 T00590043  RH  090%=      5-min Rain = 0
KBO1 041318Z 33008KT 06/04 A302 RMK A01 T00590043  RH  090%=      5-min Rain = 0
KBO1 041319Z 34010KT 06/04 A302 RMK A01 T00590044  RH  090%=      5-min Rain = 0
KBO1 041320Z 33009KT 06/04 A302 RMK A01 T00590042  RH  089%=      5-min Rain = 0
KBO1 041321Z 33009KT 06/04 A302 RMK A01 T00590042  RH  089%=      5-min Rain = 0
KBO1 041322Z 33009KT 06/04 A302 RMK A01 T00590043  RH  089%=      5-min Rain = 0
KBO1 041323Z 33008KT 06/04 A3021 RMK A01 T00600041  RH  088%=      5-min Rain = 0
KBO1 041324Z 34009KT 06/04 A3021 RMK A01 T00600041  RH  087%=      5-min Rain = 0
KBO1 041325Z 34009KT 06/04 A3021 RMK A01 T00610041  RH  087%=      5-min Rain = 0
KBO1 041326Z 34009KT 06/04 A3021 RMK A01 T00610041  RH  087%=      5-min Rain = 0
KBO1 041327Z 34008KT 06/04 A3021 RMK A01 T00630043  RH  087%=      5-min Rain = 0
KBO1 041328Z 34010KT 06/04 A3021 RMK A01 T00640043  RH  087%=      5-min Rain = 0
KBO1 041329Z 34008KT 06/04 A3021 RMK A01 T00640041  RH  085%=      5-min Rain = 0
KBO1 041330Z 34011KT 06/04 A3021 RMK A01 T00640041  RH  085%=      5-min Rain = 0
KBO1 041331Z 36011KT 06/04 A3021 RMK A01 T00630039  RH  085%=      5-min Rain = 0
KBO1 041332Z 35011KT 06/04 A3021 RMK A01 T00630038  RH  084%=      5-min Rain = 0
KBO1 041333Z 34009KT 06/04 A3021 RMK A01 T00630039  RH  085%=      5-min Rain = 0
KBO1 041334Z 34008KT 06/04 A3021 RMK A01 T00640044  RH  087%=      5-min Rain = 0
KBO1 041335Z 34009KT 07/05 A3021 RMK A01 T00660047  RH  087%=      5-min Rain = 0
KBO1 041336Z 35008KT 07/05 A3021 RMK A01 T00680047  RH  086%=      5-min Rain = 0
KBO1 041337Z 35009KT 07/05 A3021 RMK A01 T00690046  RH  085%=      5-min Rain = 0
KBO1 041338Z 34011KT 07/04 A3021 RMK A01 T00690044  RH  084%=      5-min Rain = 0
KBO1 041339Z 35011KT 07/04 A3021 RMK A01 T00690041  RH  083%=      5-min Rain = 0
KBO1 041340Z 35009KT 07/04 A3021 RMK A01 T00680042  RH  084%=      5-min Rain = 0
KBO1 041341Z 35011KT 07/04 A3021 RMK A01 T00690043  RH  084%=      5-min Rain = 0
KBO1 041342Z 35012KT 07/04 A3021 RMK A01 T00690041  RH  082%=      5-min Rain = 0
KBO1 041343Z 34011KT 07/04 A3021 RMK A01 T00700041  RH  082%=      5-min Rain = 0
KBO1 041344Z 34011KT 07/04 A3021 RMK A01 T00700042  RH  082%=      5-min Rain = 0
KBO1 041345Z 36012KT 07/04 A3021 RMK A01 T00700041  RH  082%=      5-min Rain = 0
KBO1 041346Z 35011KT 07/04 A3021 RMK A01 T00690040  RH  081%=      5-min Rain = 0
KBO1 041347Z 35011KT 07/04 A3022 RMK A01 T00690041  RH  082%=      5-min Rain = 0
KBO1 041348Z 36013KT 07/04 A3022 RMK A01 T00700040  RH  081%=      5-min Rain = 0
KBO1 041349Z 35011KT 07/04 A3022 RMK A01 T00710040  RH  081%=      5-min Rain = 0
KBO1 041350Z 35010KT 07/04 A3022 RMK A01 T00710044  RH  083%=      5-min Rain = 0
KBO1 041351Z 35013KT 07/04 A3022 RMK A01 T00720043  RH  082%=      5-min Rain = 0
KBO1 041352Z 35010KT 07/04 A3022 RMK A01 T00730042  RH  081%=      5-min Rain = 0
KBO1 041353Z 35012KT 08/04 A3022 RMK A01 T00750043  RH  080%=      5-min Rain = 0
KBO1 041354Z 35010KT 08/04 A3022 RMK A01 T00750041  RH  079%=      5-min Rain = 0
KBO1 041355Z 35010KT 08/04 A3022 RMK A01 T00760043  RH  079%=      5-min Rain = 0
KBO1 041356Z 35011KT 08/04 A3022 RMK A01 T00770041  RH  078%=      5-min Rain = 0
KBO1 041357Z 00011KT 08/04 A3022 RMK A01 T00770042  RH  078%=      5-min Rain = 0
KBO1 041358Z 36011KT 08/04 A3022 RMK A01 T00780040  RH  077%=      5-min Rain = 0
KBO1 041359Z 36012KT 08/04 A3022 RMK A01 T00780037  RH  075%=      5-min Rain = 0
KBO1 041400Z 00010KT 08/04 A3022 RMK A01 T00770038  RH  076%=      5-min Rain = 0
KBO1 041401Z 01012KT 08/04 A3022 RMK A01 T00770040  RH  077%=      5-min Rain = 0
KBO1 041402Z 35010KT 08/04 A3022 RMK A01 T00770041  RH  078%=      5-min Rain = 0
KBO1 041403Z 00009KT 08/04 A3022 RMK A01 T00780042  RH  078%=      5-min Rain = 0
KBO1 041404Z 35011KT 08/04 A3022 RMK A01 T00800043  RH  078%=      5-min Rain = 0
KBO1 041405Z 36011KT 08/04 A3022 RMK A01 T00800037  RH  074%=      5-min Rain = 0
KBO1 041406Z 35011KT 08/03 A3022 RMK A01 T00780034  RH  074%=      5-min Rain = 0
KBO1 041407Z 36010KT 08/03 A3022 RMK A01 T00760034  RH  075%=      5-min Rain = 0
KBO1 041408Z 36011KT 08/04 A3022 RMK A01 T00750037  RH  077%=      5-min Rain = 0
KBO1 041409Z 00011KT 08/04 A3022 RMK A01 T00750036  RH  077%=      5-min Rain = 0
KBO1 041410Z 01012KT 08/04 A3022 RMK A01 T00750037  RH  077%=      5-min Rain = 0
KBO1 041411Z 01011KT 08/04 A3022 RMK A01 T00770037  RH  076%=      5-min Rain = 0
KBO1 041412Z 00012KT 08/04 A3022 RMK A01 T00790039  RH  076%=      5-min Rain = 0
KBO1 041413Z 00010KT 08/04 A3022 RMK A01 T00800037  RH  074%=      5-min Rain = 0
KBO1 041414Z 35008KT 08/04 A3022 RMK A01 T00810042  RH  076%=      5-min Rain = 0
KBO1 041415Z 36012KT 08/04 A3023 RMK A01 T00830040  RH  074%=      5-min Rain = 0
KBO1 041416Z 01011KT 08/04 A3023 RMK A01 T00830038  RH  073%=      5-min Rain = 0
KBO1 041417Z 36010KT 08/04 A3023 RMK A01 T00830038  RH  073%=      5-min Rain = 0
KBO1 041418Z 35010KT 08/04 A3023 RMK A01 T00830037  RH  073%=      5-min Rain = 0
KBO1 041419Z 34011KT 08/04 A3023 RMK A01 T00820040  RH  074%=      5-min Rain = 0
KBO1 041420Z 35011KT 08/04 A3023 RMK A01 T00820038  RH  074%=      5-min Rain = 0
KBO1 041421Z 01012KT 08/04 A3023 RMK A01 T00810035  RH  073%=      5-min Rain = 0
KBO1 041422Z 01012KT 08/03 A3023 RMK A01 T00800031  RH  071%=      5-min Rain = 0
KBO1 041423Z 01012KT 08/03 A3023 RMK A01 T00790029  RH  071%=      5-min Rain = 0
KBO1 041424Z 01011KT 08/03 A3023 RMK A01 T00790033  RH  072%=      5-min Rain = 0
KBO1 041425Z 00012KT 08/03 A3024 RMK A01 T00800033  RH  072%=      5-min Rain = 0
KBO1 041426Z 36011KT 08/03 A3024 RMK A01 T00800032  RH  072%=      5-min Rain = 0
KBO1 041427Z 36012KT 08/03 A3024 RMK A01 T00800033  RH  072%=      5-min Rain = 0
KBO1 041428Z 00011KT 08/03 A3024 RMK A01 T00800032  RH  072%=      5-min Rain = 0
KBO1 041429Z 00012KT 08/03 A3024 RMK A01 T00810032  RH  071%=      5-min Rain = 0
KBO1 041430Z 01010KT 08/03 A3024 RMK A01 T00800030  RH  071%=      5-min Rain = 0
KBO1 041431Z 01010KT 08/03 A3024 RMK A01 T00800031  RH  071%=      5-min Rain = 0
KBO1 041432Z 00010KT 08/03 A3024 RMK A01 T00800032  RH  072%=      5-min Rain = 0
KBO1 041433Z 36010KT 08/03 A3024 RMK A01 T00800033  RH  072%=      5-min Rain = 0
KBO1 041434Z 35011KT 08/04 A3024 RMK A01 T00810036  RH  073%=      5-min Rain = 0
KBO1 041435Z 36010KT 08/04 A3024 RMK A01 T00820035  RH  072%=      5-min Rain = 0
KBO1 041436Z 01012KT 08/04 A3024 RMK A01 T00830035  RH  072%=      5-min Rain = 0
KBO1 041437Z 01009KT 08/03 A3024 RMK A01 T00830032  RH  070%=      5-min Rain = 0
KBO1 041438Z 00010KT 08/03 A3024 RMK A01 T00820033  RH  071%=      5-min Rain = 0
KBO1 041439Z 02010KT 08/04 A3024 RMK A01 T00830036  RH  072%=      5-min Rain = 0
KBO1 041440Z 02009KT 09/04 A3024 RMK A01 T00850035  RH  071%=      5-min Rain = 0
KBO1 041441Z 01009KT 09/03 A3024 RMK A01 T00850033  RH  070%=      5-min Rain = 0
KBO1 041442Z 01009KT 09/03 A3024 RMK A01 T00850032  RH  069%=      5-min Rain = 0
KBO1 041443Z 01010KT 09/04 A3024 RMK A01 T00850035  RH  071%=      5-min Rain = 0
KBO1 041444Z 02010KT 09/03 A3024 RMK A01 T00860034  RH  070%=      5-min Rain = 0
KBO1 041445Z 02011KT 09/04 A3024 RMK A01 T00860035  RH  070%=      5-min Rain = 0
KBO1 041446Z 03012KT 09/04 A3024 RMK A01 T00870035  RH  070%=      5-min Rain = 0
KBO1 041447Z 02011KT 09/03 A3024 RMK A01 T00870032  RH  068%=      5-min Rain = 0
KBO1 041448Z 02009KT 09/03 A3024 RMK A01 T00860032  RH  069%=      5-min Rain = 0
KBO1 041449Z 03009KT 09/03 A3024 RMK A01 T00860033  RH  070%=      5-min Rain = 0
KBO1 041450Z 02009KT 09/03 A3024 RMK A01 T00860033  RH  069%=      5-min Rain = 0
KBO1 041451Z 02010KT 09/03 A3024 RMK A01 T00870033  RH  069%=      5-min Rain = 0
KBO1 041452Z 03010KT 09/03 A3024 RMK A01 T00880032  RH  068%=      5-min Rain = 0
KBO1 041453Z 03009KT 09/03 A3024 RMK A01 T00870032  RH  068%=      5-min Rain = 0
KBO1 041454Z 02011KT 09/03 A3024 RMK A01 T00870032  RH  068%=      5-min Rain = 0
KBO1 041455Z 03010KT 09/03 A3024 RMK A01 T00850030  RH  068%=      5-min Rain = 0
KBO1 041456Z 02008KT 09/03 A3024 RMK A01 T00850028  RH  068%=      5-min Rain = 0
KBO1 041457Z 02008KT 09/03 A3023 RMK A01 T00870033  RH  069%=      5-min Rain = 0
KBO1 041458Z 03008KT 09/04 A3023 RMK A01 T00910037  RH  069%=      5-min Rain = 0
KBO1 041459Z 03010KT 09/04 A3023 RMK A01 T00940037  RH  068%=      5-min Rain = 0
KBO1 041500Z 02010KT 10/03 A3023 RMK A01 T00950032  RH  065%=      5-min Rain = 0
KBO1 041501Z 02009KT 09/03 A3023 RMK A01 T00940030  RH  064%=      5-min Rain = 0
KBO1 041502Z 02011KT 09/03 A3023 RMK A01 T00920028  RH  064%=      5-min Rain = 0
KBO1 041503Z 04011KT 09/03 A3023 RMK A01 T00910025  RH  063%=      5-min Rain = 0
KBO1 041504Z 04010KT 09/03 A3023 RMK A01 T00920028  RH  065%=      5-min Rain = 0
KBO1 041505Z 03010G15KT 09/03 A3023 RMK A01 T00930031  RH  065%=      5-min Rain = 0
KBO1 041506Z 03011KT 09/03 A3023 RMK A01 T00940030  RH  064%=      5-min Rain = 0
KBO1 041507Z 03010KT 09/03 A3023 RMK A01 T00930031  RH  065%=      5-min Rain = 0
KBO1 041508Z 01009KT 09/03 A3023 RMK A01 T00940030  RH  064%=      5-min Rain = 0
KBO1 041509Z 00009KT 09/03 A3022 RMK A01 T00930029  RH  064%=      5-min Rain = 0
KBO1 041510Z 00010KT 10/03 A3023 RMK A01 T00950030  RH  064%=      5-min Rain = 0
KBO1 041511Z 01011KT 10/03 A3023 RMK A01 T00950027  RH  062%=      5-min Rain = 0
KBO1 041512Z 01010KT 09/03 A3023 RMK A01 T00920026  RH  063%=      5-min Rain = 0
KBO1 041513Z 02010KT 09/03 A3023 RMK A01 T00910028  RH  065%=      5-min Rain = 0
KBO1 041514Z 01010KT 09/03 A3023 RMK A01 T00940032  RH  065%=      5-min Rain = 0
KBO1 041515Z 00011KT 10/03 A3023 RMK A01 T00960030  RH  064%=      5-min Rain = 0
KBO1 041516Z 00009KT 09/03 A3023 RMK A01 T00930027  RH  063%=      5-min Rain = 0
KBO1 041517Z 01008KT 09/03 A3023 RMK A01 T00920026  RH  064%=      5-min Rain = 0
KBO1 041518Z 36009KT 09/03 A3022 RMK A01 T00910028  RH  065%=      5-min Rain = 0
KBO1 041519Z 36009KT 09/03 A3022 RMK A01 T00910029  RH  065%=      5-min Rain = 0
KBO1 041520Z 01011KT 09/03 A3022 RMK A01 T00930033  RH  066%=      5-min Rain = 0
KBO1 041521Z 02009KT 10/03 A3022 RMK A01 T00960032  RH  064%=      5-min Rain = 0
KBO1 041522Z 00010KT 10/03 A3022 RMK A01 T00980032  RH  063%=      5-min Rain = 0
KBO1 041523Z 01008KT 10/03 A3022 RMK A01 T00980032  RH  063%=      5-min Rain = 0
KBO1 041524Z 04008KT 10/03 A3022 RMK A01 T01000034  RH  063%=      5-min Rain = 0
KBO1 041525Z 02010KT 10/03 A3022 RMK A01 T01010030  RH  061%=      5-min Rain = 0
KBO1 041526Z 02011KT 10/03 A3022 RMK A01 T01020030  RH  061%=      5-min Rain = 0
KBO1 041527Z 01009KT 10/03 A3022 RMK A01 T01020026  RH  059%=      5-min Rain = 0
KBO1 041528Z 02011G16KT 10/03 A3022 RMK A01 T01000027  RH  061%=      5-min Rain = 0
KBO1 041529Z 01011KT 10/03 A3022 RMK A01 T01020032  RH  062%=      5-min Rain = 0
KBO1 041530Z 01009KT 10/03 A3022 RMK A01 T01030030  RH  061%=      5-min Rain = 0
KBO1 041531Z 02009KT 10/03 A3022 RMK A01 T01040027  RH  059%=      5-min Rain = 0
KBO1 041532Z 04009KT 10/03 A3022 RMK A01 T01030028  RH  060%=      5-min Rain = 0
KBO1 041533Z 04009KT 10/03 A3022 RMK A01 T01010027  RH  060%=      5-min Rain = 0
KBO1 041534Z 05009KT 10/03 A3022 RMK A01 T01000026  RH  060%=      5-min Rain = 0
KBO1 041535Z 04009KT 10/03 A3022 RMK A01 T01010028  RH  061%=      5-min Rain = 0
KBO1 041536Z 03011KT 10/03 A3022 RMK A01 T01030028  RH  059%=      5-min Rain = 0
KBO1 041537Z 05009KT 10/03 A3022 RMK A01 T01040026  RH  058%=      5-min Rain = 0
KBO1 041538Z 04010KT 10/03 A3022 RMK A01 T01040027  RH  059%=      5-min Rain = 0
KBO1 041539Z 05008KT 10/03 A3022 RMK A01 T01040030  RH  060%=      5-min Rain = 0
KBO1 041540Z 04007KT 11/03 A3022 RMK A01 T01070031  RH  059%=      5-min Rain = 0
KBO1 041541Z 02007KT 11/03 A3022 RMK A01 T01080028  RH  057%=      5-min Rain = 0
KBO1 041542Z 02009KT 11/03 A3022 RMK A01 T01090031  RH  059%=      5-min Rain = 0
KBO1 041543Z 02010KT 11/03 A3022 RMK A01 T01110027  RH  056%=      5-min Rain = 0
KBO1 041544Z 02009KT 11/03 A3022 RMK A01 T01100025  RH  056%=      5-min Rain = 0
KBO1 041545Z 02009KT 11/03 A3022 RMK A01 T01090028  RH  057%=      5-min Rain = 0
KBO1 041546Z 02007KT 11/03 A3022 RMK A01 T01080027  RH  057%=      5-min Rain = 0
KBO1 041547Z 03012KT 11/03 A3022 RMK A01 T01090029  RH  058%=      5-min Rain = 0
KBO1 041548Z 03011KT 11/03 A3022 RMK A01 T01100029  RH  057%=      5-min Rain = 0
KBO1 041549Z 03007KT 11/02 A3022 RMK A01 T01090024  RH  056%=      5-min Rain = 0
KBO1 041550Z 04009KT 11/02 A3022 RMK A01 T01060024  RH  057%=      5-min Rain = 0
KBO1 041551Z 03009KT 10/02 A3022 RMK A01 T01030023  RH  057%=      5-min Rain = 0
KBO1 041552Z 03009KT 10/03 A3022 RMK A01 T01030026  RH  058%=      5-min Rain = 0
KBO1 041553Z 03008KT 11/02 A3022 RMK A01 T01060024  RH  057%=      5-min Rain = 0
KBO1 041554Z 03008KT 11/02 A3022 RMK A01 T01060021  RH  056%=      5-min Rain = 0
KBO1 041555Z 04007KT 10/02 A3022 RMK A01 T01010017  RH  056%=      5-min Rain = 0
KBO1 041556Z 03007KT 10/02 A3022 RMK A01 T00990021  RH  058%=      5-min Rain = 0
KBO1 041557Z 01006KT 10/02 A3022 RMK A01 T00980023  RH  059%=      5-min Rain = 0
KBO1 041558Z 02007KT 10/03 A3022 RMK A01 T01010027  RH  060%=      5-min Rain = 0
KBO1 041559Z 01005KT 10/02 A3021 RMK A01 T01030023  RH  058%=      5-min Rain = 0
KBO1 041600Z 03007G12KT 10/03 A3022 RMK A01 T01030025  RH  058%=      5-min Rain = 0
KBO1 041601Z 03009KT 11/03 A3022 RMK A01 T01060026  RH  058%=      5-min Rain = 0
KBO1 041602Z 02007G12KT 11/02 A3022 RMK A01 T01070021  RH  056%=      5-min Rain = 0
KBO1 041603Z 02012KT 11/02 A3022 RMK A01 T01070023  RH  056%=      5-min Rain = 0
KBO1 041604Z 02008KT 11/02 A3022 RMK A01 T01070024  RH  056%=      5-min Rain = 0
KBO1 041605Z 00009KT 11/03 A3022 RMK A01 T01110029  RH  057%=      5-min Rain = 0
KBO1 041606Z 01009KT 11/03 A3022 RMK A01 T01140029  RH  056%=      5-min Rain = 0
KBO1 041607Z 01007KT 11/02 A3022 RMK A01 T01120022  RH  054%=      5-min Rain = 0
KBO1 041608Z 01006KT 11/02 A3022 RMK A01 T01060020  RH  055%=      5-min Rain = 0
KBO1 041609Z 02008KT 10/02 A3022 RMK A01 T01030024  RH  058%=      5-min Rain = 0
KBO1 041610Z 04009KT 11/03 A3022 RMK A01 T01070026  RH  057%=      5-min Rain = 0
KBO1 041611Z 05010KT 11/02 A3022 RMK A01 T01090024  RH  056%=      5-min Rain = 0
KBO1 041612Z 05010KT 11/02 A3022 RMK A01 T01100024  RH  055%=      5-min Rain = 0
KBO1 041613Z 04010KT 11/03 A3022 RMK A01 T01120026  RH  055%=      5-min Rain = 0
KBO1 041614Z 05009KT 11/02 A3022 RMK A01 T01130022  RH  053%=      5-min Rain = 0
KBO1 041615Z 04008KT 11/02 A3022 RMK A01 T01090019  RH  054%=      5-min Rain = 0
KBO1 041616Z 03007KT 11/02 A3022 RMK A01 T01070021  RH  055%=      5-min Rain = 0
KBO1 041617Z 04007KT 11/02 A3022 RMK A01 T01070024  RH  056%=      5-min Rain = 0
KBO1 041618Z 02004KT 11/02 A3022 RMK A01 T01070021  RH  055%=      5-min Rain = 0
KBO1 041619Z 04005KT 11/02 A3022 RMK A01 T01080024  RH  056%=      5-min Rain = 0
KBO1 041620Z 04007KT 11/02 A3022 RMK A01 T01090023  RH  056%=      5-min Rain = 0
KBO1 041621Z 02007KT 11/02 A3022 RMK A01 T01080021  RH  055%=      5-min Rain = 0
KBO1 041622Z 03004KT 11/02 A3022 RMK A01 T01060021  RH  056%=      5-min Rain = 0
KBO1 041623Z 04009KT 11/03 A3022 RMK A01 T01090031  RH  059%=      5-min Rain = 0
KBO1 041624Z 04008KT 12/03 A3022 RMK A01 T01150028  RH  055%=      5-min Rain = 0
KBO1 041625Z 03006KT 12/03 A3022 RMK A01 T01160025  RH  054%=      5-min Rain = 0
KBO1 041626Z 03006KT 12/02 A3022 RMK A01 T01160022  RH  053%=      5-min Rain = 0
KBO1 041627Z 02008KT 11/02 A3022 RMK A01 T01120020  RH  053%=      5-min Rain = 0
KBO1 041628Z 01008KT 11/03 A3022 RMK A01 T01110026  RH  056%=      5-min Rain = 0
KBO1 041629Z 00007KT 11/02 A3022 RMK A01 T01130024  RH  054%=      5-min Rain = 0
KBO1 041630Z 00006KT 11/02 A3022 RMK A01 T01120022  RH  054%=      5-min Rain = 0
KBO1 041631Z 00005KT 11/02 A3022 RMK A01 T01090020  RH  054%=      5-min Rain = 0
KBO1 041632Z 00004KT 11/02 A3022 RMK A01 T01070020  RH  055%=      5-min Rain = 0
KBO1 041633Z 03005KT 11/03 A3022 RMK A01 T01080025  RH  056%=      5-min Rain = 0
KBO1 041634Z 01004KT 11/03 A3022 RMK A01 T01110026  RH  056%=      5-min Rain = 0
KBO1 041635Z 33004KT 11/03 A3022 RMK A01 T01140026  RH  055%=      5-min Rain = 0
KBO1 041636Z 34003KT 11/02 A3021 RMK A01 T01130022  RH  053%=      5-min Rain = 0
KBO1 041637Z 02004KT 11/02 A3022 RMK A01 T01110023  RH  054%=      5-min Rain = 0
KBO1 041638Z 03010KT 11/02 A3022 RMK A01 T01100024  RH  055%=      5-min Rain = 0
KBO1 041639Z 03008KT 11/02 A3022 RMK A01 T01100023  RH  055%=      5-min Rain = 0
KBO1 041640Z 03009KT 11/03 A3022 RMK A01 T01120025  RH  055%=      5-min Rain = 0
KBO1 041641Z 04006KT 11/02 A3022 RMK A01 T01100020  RH  054%=      5-min Rain = 0
KBO1 041642Z 02004KT 11/02 A3022 RMK A01 T01080017  RH  054%=      5-min Rain = 0
KBO1 041643Z 06004KT 11/02 A3022 RMK A01 T01060020  RH  055%=      5-min Rain = 0
KBO1 041644Z 05004KT 11/02 A3022 RMK A01 T01080020  RH  054%=      5-min Rain = 0
KBO1 041645Z 04010KT 11/03 A3022 RMK A01 T01130027  RH  055%=      5-min Rain = 0
KBO1 041646Z 04007KT 12/02 A3022 RMK A01 T01150021  RH  053%=      5-min Rain = 0
KBO1 041647Z 06006KT 11/03 A3022 RMK A01 T01140025  RH  054%=      5-min Rain = 0
KBO1 041648Z 07004KT 12/03 A3022 RMK A01 T01160026  RH  054%=      5-min Rain = 0
KBO1 041649Z 07006KT 12/02 A3022 RMK A01 T01170022  RH  052%=      5-min Rain = 0
KBO1 041650Z 05005KT 12/02 A3022 RMK A01 T01160020  RH  052%=      5-min Rain = 0
KBO1 041651Z 08003KT 12/02 A3022 RMK A01 T01150021  RH  052%=      5-min Rain = 0
KBO1 041652Z 06006KT 12/03 A3022 RMK A01 T01180026  RH  053%=      5-min Rain = 0
KBO1 041653Z 06008KT 12/02 A3022 RMK A01 T01200024  RH  052%=      5-min Rain = 0
KBO1 041654Z 06006KT 12/03 A3022 RMK A01 T01200026  RH  053%=      5-min Rain = 0
KBO1 041655Z 04005KT 12/03 A3022 RMK A01 T01220025  RH  052%=      5-min Rain = 0
KBO1 041656Z 01003KT 12/03 A3022 RMK A01 T01240029  RH  052%=      5-min Rain = 0
KBO1 041657Z 35006KT 13/03 A3022 RMK A01 T01260026  RH  051%=      5-min Rain = 0
KBO1 041658Z 00008KT 13/03 A3022 RMK A01 T01250025  RH  050%=      5-min Rain = 0
KBO1 041659Z 35004KT 12/02 A3022 RMK A01 T01220019  RH  050%=      5-min Rain = 0
KBO1 041700Z 34004KT 12/02 A3022 RMK A01 T01180021  RH  051%=      5-min Rain = 0
KBO1 041701Z 00004KT 12/02 A3022 RMK A01 T01180023  RH  052%=      5-min Rain = 0
KBO1 041702Z 04006KT 12/02 A3022 RMK A01 T01180022  RH  052%=      5-min Rain = 0
KBO1 041703Z 06004KT 12/02 A3022 RMK A01 T01150019  RH  051%=      5-min Rain = 0
KBO1 041704Z 10003KT 11/02 A3022 RMK A01 T01140019  RH  052%=      5-min Rain = 0
KBO1 041705Z 04004KT 12/03 A3022 RMK A01 T01150025  RH  054%=      5-min Rain = 0
KBO1 041706Z 06006KT 12/03 A3022 RMK A01 T01190025  RH  053%=      5-min Rain = 0
KBO1 041707Z 05006KT 12/02 A3022 RMK A01 T01220023  RH  051%=      5-min Rain = 0
KBO1 041708Z 06006KT 12/02 A3022 RMK A01 T01210019  RH  050%=      5-min Rain = 0
KBO1 041709Z 07006KT 12/02 A3022 RMK A01 T01210020  RH  050%=      5-min Rain = 0
KBO1 041710Z 08006KT 12/02 A3022 RMK A01 T01200019  RH  050%=      5-min Rain = 0
KBO1 041711Z 06005KT 12/03 A3022 RMK A01 T01200025  RH  052%=      5-min Rain = 0
KBO1 041712Z 01006KT 12/03 A3022 RMK A01 T01230026  RH  051%=      5-min Rain = 0
KBO1 041713Z 36008KT 12/02 A3022 RMK A01 T01220019  RH  049%=      5-min Rain = 0
KBO1 041714Z 36006KT 12/02 A3022 RMK A01 T01180018  RH  050%=      5-min Rain = 0
KBO1 041715Z 36005KT 12/02 A3022 RMK A01 T01160019  RH  051%=      5-min Rain = 0
KBO1 041716Z 33007KT 12/02 A3022 RMK A01 T01170020  RH  051%=      5-min Rain = 0
KBO1 041717Z 33006KT 12/02 A3022 RMK A01 T01190024  RH  052%=      5-min Rain = 0
KBO1 041718Z 33005KT 12/02 A3022 RMK A01 T01220022  RH  050%=      5-min Rain = 0
KBO1 041719Z 34004KT 12/02 A3022 RMK A01 T01200018  RH  050%=      5-min Rain = 0
KBO1 041720Z 34007KT 12/02 A3022 RMK A01 T01190022  RH  051%=      5-min Rain = 0
KBO1 041721Z 34006KT 12/02 A3022 RMK A01 T01210023  RH  051%=      5-min Rain = 0
KBO1 041722Z 02007KT 12/02 A3022 RMK A01 T01220022  RH  050%=      5-min Rain = 0
KBO1 041723Z 35005KT 12/03 A3022 RMK A01 T01230025  RH  051%=      5-min Rain = 0
KBO1 041724Z 01007KT 13/03 A3022 RMK A01 T01260027  RH  051%=      5-min Rain = 0
KBO1 041725Z 02007KT 13/03 A3022 RMK A01 T01290025  RH  049%=      5-min Rain = 0
KBO1 041726Z 02007KT 13/02 A3022 RMK A01 T01280022  RH  049%=      5-min Rain = 0
KBO1 041727Z 02009KT 13/02 A3022 RMK A01 T01250023  RH  050%=      5-min Rain = 0
KBO1 041728Z 02005KT 13/02 A3022 RMK A01 T01250023  RH  050%=      5-min Rain = 0
KBO1 041729Z 01002KT 13/02 A3022 RMK A01 T01260024  RH  050%=      5-min Rain = 0
KBO1 041730Z 36001KT 13/02 A3022 RMK A01 T01270019  RH  048%=      5-min Rain = 0
KBO1 041731Z 02003KT 13/02 A3022 RMK A01 T01270024  RH  050%=      5-min Rain = 0
KBO1 041732Z 35008KT 13/03 A3022 RMK A01 T01290025  RH  049%=      5-min Rain = 0
KBO1 041733Z 36010KT 13/02 A3022 RMK A01 T01320024  RH  048%=      5-min Rain = 0
KBO1 041734Z 34006KT 13/02 A3022 RMK A01 T01290017  RH  046%=      5-min Rain = 0
KBO1 041735Z 34007KT 13/02 A3022 RMK A01 T01250017  RH  048%=      5-min Rain = 0
KBO1 041736Z 32005KT 12/02 A3022 RMK A01 T01230019  RH  049%=      5-min Rain = 0
KBO1 041737Z 02004KT 12/02 A3022 RMK A01 T01220020  RH  050%=      5-min Rain = 0
KBO1 041738Z 05006KT 12/02 A3022 RMK A01 T01240022  RH  050%=      5-min Rain = 0
KBO1 041739Z 06008KT 13/02 A3022 RMK A01 T01270022  RH  049%=      5-min Rain = 0
KBO1 041740Z 05006KT 13/02 A3022 RMK A01 T01280022  RH  049%=      5-min Rain = 0
KBO1 041741Z 00006KT 13/02 A3022 RMK A01 T01300021  RH  047%=      5-min Rain = 0
KBO1 041742Z 00002KT 13/02 A3021 RMK A01 T01280020  RH  048%=      5-min Rain = 0
KBO1 041743Z 02000KT 13/02 A3021 RMK A01 T01270022  RH  049%=      5-min Rain = 0
KBO1 041744Z 02003KT 13/02 A3021 RMK A01 T01280022  RH  049%=      5-min Rain = 0
KBO1 041745Z 01003KT 13/02 A3021 RMK A01 T01300022  RH  048%=      5-min Rain = 0
KBO1 041746Z 05004KT 13/02 A3021 RMK A01 T01280021  RH  048%=      5-min Rain = 0
KBO1 041747Z 02006KT 13/02 A3021 RMK A01 T01270021  RH  049%=      5-min Rain = 0
KBO1 041748Z 05004KT 13/02 A3021 RMK A01 T01260022  RH  049%=      5-min Rain = 0
KBO1 041749Z 06003KT 13/03 A3021 RMK A01 T01270027  RH  051%=      5-min Rain = 0
KBO1 041750Z 06004KT 13/02 A3021 RMK A01 T01280024  RH  049%=      5-min Rain = 0
KBO1 041751Z 02005KT 13/03 A3021 RMK A01 T01290025  RH  049%=      5-min Rain = 0
KBO1 041752Z 35007KT 13/02 A3021 RMK A01 T01300024  RH  048%=      5-min Rain = 0
KBO1 041753Z 02006KT 13/02 A3021 RMK A01 T01310023  RH  048%=      5-min Rain = 0
KBO1 041754Z 02005KT 13/02 A3021 RMK A01 T01290021  RH  048%=      5-min Rain = 0
KBO1 041755Z 35005KT 13/02 A3021 RMK A01 T01280019  RH  048%=      5-min Rain = 0
KBO1 041756Z 32005KT 13/02 A3021 RMK A01 T01260018  RH  048%=      5-min Rain = 0
KBO1 041757Z 30006KT 13/02 A3021 RMK A01 T01260022  RH  049%=      5-min Rain = 0
KBO1 041758Z 31005KT 13/02 A3021 RMK A01 T01270020  RH  048%=      5-min Rain = 0
KBO1 041759Z 30006KT 13/02 A3021 RMK A01 T01270020  RH  048%=      5-min Rain = 0
KBO1 041800Z 31008KT 13/02 A3021 RMK A01 T01280023  RH  049%=      5-min Rain = 0
KBO1 041801Z 34009KT 13/03 A3021 RMK A01 T01310025  RH  049%=      5-min Rain = 0
KBO1 041802Z 34010KT 13/02 A3021 RMK A01 T01330023  RH  047%=      5-min Rain = 0
KBO1 041803Z 34006KT 14/03 A3021 RMK A01 T01360025  RH  047%=      5-min Rain = 0
KBO1 041804Z 03006KT 14/02 A3021 RMK A01 T01380024  RH  046%=      5-min Rain = 0
KBO1 041805Z 32006KT 14/02 A3021 RMK A01 T01390022  RH  045%=      5-min Rain = 0
KBO1 041806Z 00006KT 14/03 A3021 RMK A01 T01400025  RH  046%=      5-min Rain = 0
KBO1 041807Z 04002KT 14/02 A3021 RMK A01 T01400019  RH  044%=      5-min Rain = 0
KBO1 041808Z 00002KT 14/02 A3021 RMK A01 T01360016  RH  044%=      5-min Rain = 0
KBO1 041809Z 32005KT 14/02 A3021 RMK A01 T01360021  RH  046%=      5-min Rain = 0
KBO1 041810Z 34006KT 14/02 A3021 RMK A01 T01360020  RH  045%=      5-min Rain = 0
KBO1 041811Z 33010KT 13/02 A3021 RMK A01 T01340019  RH  046%=      5-min Rain = 0
KBO1 041812Z 32005KT 13/02 A3021 RMK A01 T01330019  RH  046%=      5-min Rain = 0
KBO1 041813Z 33005KT 13/02 A3021 RMK A01 T01310021  RH  047%=      5-min Rain = 0
KBO1 041814Z 33005KT 13/02 A3021 RMK A01 T01300020  RH  047%=      5-min Rain = 0
KBO1 041815Z 34008G14KT 13/02 A3021 RMK A01 T01300023  RH  048%=      5-min Rain = 0
KBO1 041816Z 34007KT 13/02 A302 RMK A01 T01340024  RH  047%=      5-min Rain = 0
KBO1 041817Z 35009KT 13/02 A302 RMK A01 T01330020  RH  046%=      5-min Rain = 0
KBO1 041818Z 02004KT 13/02 A302 RMK A01 T01310019  RH  046%=      5-min Rain = 0
KBO1 041819Z 35003KT 13/02 A302 RMK A01 T01280018  RH  047%=      5-min Rain = 0
KBO1 041820Z 32001KT 13/02 A302 RMK A01 T01280024  RH  049%=      5-min Rain = 0
KBO1 041821Z 01003KT 13/03 A302 RMK A01 T01340027  RH  048%=      5-min Rain = 0
KBO1 041822Z 09001KT 14/02 A302 RMK A01 T01360022  RH  046%=      5-min Rain = 0
KBO1 041823Z 34004KT 14/02 A302 RMK A01 T01370023  RH  046%=      5-min Rain = 0
KBO1 041824Z 31008KT 14/02 A302 RMK A01 T01380022  RH  045%=      5-min Rain = 0
KBO1 041825Z 29007KT 14/02 A302 RMK A01 T01360019  RH  045%=      5-min Rain = 0
KBO1 041826Z 25003KT 14/02 A302 RMK A01 T01350021  RH  046%=      5-min Rain = 0
KBO1 041827Z 25002KT 14/02 A3019 RMK A01 T01360022  RH  046%=      5-min Rain = 0
KBO1 041828Z 34002G7KT 14/02 A3019 RMK A01 T01360023  RH  046%=      5-min Rain = 0
KBO1 041829Z 33008KT 14/02 A3019 RMK A01 T01380024  RH  046%=      5-min Rain = 0
KBO1 041830Z 34005KT 14/02 A3019 RMK A01 T01380017  RH  044%=      5-min Rain = 0
KBO1 041831Z 33008KT 14/02 A3019 RMK A01 T01360018  RH  045%=      5-min Rain = 0
KBO1 041832Z 30003KT 13/02 A3019 RMK A01 T01330019  RH  046%=      5-min Rain = 0
KBO1 041833Z 00004KT 13/02 A3019 RMK A01 T01330020  RH  046%=      5-min Rain = 0
KBO1 041834Z 01005KT 13/02 A3019 RMK A01 T01320022  RH  047%=      5-min Rain = 0
KBO1 041835Z 02009KT 13/02 A3019 RMK A01 T01330023  RH  047%=      5-min Rain = 0
KBO1 041836Z 02007KT 13/02 A3019 RMK A01 T01330023  RH  047%=      5-min Rain = 0
KBO1 041837Z 04006KT 13/02 A3019 RMK A01 T01330021  RH  047%=      5-min Rain = 0
KBO1 041838Z 04004KT 13/02 A3019 RMK A01 T01300016  RH  046%=      5-min Rain = 0
KBO1 041839Z 04007KT 13/02 A3019 RMK A01 T01280020  RH  048%=      5-min Rain = 0
KBO1 041840Z 04007KT 13/02 A3019 RMK A01 T01280020  RH  048%=      5-min Rain = 0
KBO1 041841Z 04007KT 13/02 A3019 RMK A01 T01310022  RH  048%=      5-min Rain = 0
KBO1 041842Z 06004KT 13/02 A3019 RMK A01 T01330019  RH  046%=      5-min Rain = 0
KBO1 041843Z 06002KT 13/02 A3019 RMK A01 T01340023  RH  047%=      5-min Rain = 0
KBO1 041844Z 35004KT 14/03 A3019 RMK A01 T01370025  RH  046%=      5-min Rain = 0
KBO1 041845Z 35005KT 14/02 A3019 RMK A01 T01400021  RH  045%=      5-min Rain = 0
KBO1 041846Z 34007KT 14/03 A3019 RMK A01 T01420027  RH  046%=      5-min Rain = 0
KBO1 041847Z 33008KT 15/03 A3019 RMK A01 T01500030  RH  044%=      5-min Rain = 0
KBO1 041848Z 33008KT 15/03 A3019 RMK A01 T01520025  RH  042%=      5-min Rain = 0
KBO1 041849Z 34009KT 15/02 A3019 RMK A01 T01490021  RH  042%=      5-min Rain = 0
KBO1 041850Z 34007KT 14/02 A3019 RMK A01 T01430018  RH  043%=      5-min Rain = 0
KBO1 041851Z 30007KT 14/02 A3019 RMK A01 T01400019  RH  044%=      5-min Rain = 0
KBO1 041852Z 29007KT 14/02 A3019 RMK A01 T01410021  RH  044%=      5-min Rain = 0
KBO1 041853Z 27005KT 15/03 A3019 RMK A01 T01450025  RH  044%=      5-min Rain = 0
KBO1 041854Z 23004KT 15/02 A3019 RMK A01 T01470022  RH  043%=      5-min Rain = 0
KBO1 041855Z 33006KT 15/02 A3019 RMK A01 T01460022  RH  043%=      5-min Rain = 0
KBO1 041856Z 36005KT 15/02 A3019 RMK A01 T01470024  RH  043%=      5-min Rain = 0
KBO1 041857Z 00004KT 15/03 A3019 RMK A01 T01470025  RH  044%=      5-min Rain = 0
KBO1 041858Z 34005KT 15/03 A3019 RMK A01 T01500030  RH  044%=      5-min Rain = 0
KBO1 041859Z 35006KT 15/03 A3019 RMK A01 T01540030  RH  044%=      5-min Rain = 0
KBO1 041900Z 35009KT 16/03 A3019 RMK A01 T01560030  RH  043%=      5-min Rain = 0
KBO1 041901Z 35008KT 15/02 A3019 RMK A01 T01530021  RH  041%=      5-min Rain = 0
KBO1 041902Z 35010KT 15/03 A3019 RMK A01 T01470025  RH  044%=      5-min Rain = 0
KBO1 041903Z 34007KT 15/02 A3019 RMK A01 T01490024  RH  043%=      5-min Rain = 0
KBO1 041904Z 35007KT 15/02 A3019 RMK A01 T01470022  RH  043%=      5-min Rain = 0
KBO1 041905Z 33005KT 14/02 A3019 RMK A01 T01430018  RH  043%=      5-min Rain = 0
KBO1 041906Z 33005KT 14/02 A3019 RMK A01 T01390020  RH  044%=      5-min Rain = 0
KBO1 041907Z 32002KT 14/02 A3019 RMK A01 T01390020  RH  044%=      5-min Rain = 0
KBO1 041908Z 11001KT 14/02 A3019 RMK A01 T01390017  RH  044%=      5-min Rain = 0
KBO1 041909Z 31005KT 14/02 A3019 RMK A01 T01390023  RH  045%=      5-min Rain = 0
KBO1 041910Z 31001KT 14/02 A3019 RMK A01 T01430022  RH  044%=      5-min Rain = 0
KBO1 041911Z 24002KT 14/02 A3019 RMK A01 T01440023  RH  044%=      5-min Rain = 0
KBO1 041912Z 31006KT 15/03 A3019 RMK A01 T01460025  RH  044%=      5-min Rain = 0
KBO1 041913Z 32008KT 15/03 A3019 RMK A01 T01480025  RH  043%=      5-min Rain = 0
KBO1 041914Z 33007KT 15/02 A3019 RMK A01 T01480023  RH  043%=      5-min Rain = 0
KBO1 041915Z 34007KT 15/02 A3019 RMK A01 T01460023  RH  044%=      5-min Rain = 0
KBO1 041916Z 32007KT 15/02 A3019 RMK A01 T01460024  RH  044%=      5-min Rain = 0
KBO1 041917Z 28006KT 15/02 A3019 RMK A01 T01460023  RH  043%=      5-min Rain = 0
KBO1 041918Z 28008KT 14/02 A3019 RMK A01 T01420021  RH  044%=      5-min Rain = 0
KBO1 041919Z 30006KT 14/03 A3019 RMK A01 T01430027  RH  045%=      5-min Rain = 0
KBO1 041920Z 25003G8KT 15/02 A3019 RMK A01 T01470023  RH  043%=      5-min Rain = 0
KBO1 041921Z 29007KT 15/03 A3019 RMK A01 T01490028  RH  044%=      5-min Rain = 0
KBO1 041922Z 31009KT 15/03 A3019 RMK A01 T01530029  RH  043%=      5-min Rain = 0
KBO1 041923Z 32008KT 15/02 A3019 RMK A01 T01540023  RH  041%=      5-min Rain = 0
KBO1 041924Z 32007KT 15/02 A3019 RMK A01 T01490020  RH  042%=      5-min Rain = 0
KBO1 041925Z 30006KT 15/02 A3019 RMK A01 T01460022  RH  043%=      5-min Rain = 0
KBO1 041926Z 26008KT 15/03 A3019 RMK A01 T01480025  RH  043%=      5-min Rain = 0
KBO1 041927Z 28006KT 15/02 A3019 RMK A01 T01470023  RH  043%=      5-min Rain = 0
KBO1 041928Z 31009KT 15/03 A3019 RMK A01 T01480027  RH  044%=      5-min Rain = 0
KBO1 041929Z 30008KT 15/03 A3019 RMK A01 T01490025  RH  043%=      5-min Rain = 0
KBO1 041930Z 28007KT 15/02 A3019 RMK A01 T01500024  RH  043%=      5-min Rain = 0
KBO1 041931Z 29005KT 15/02 A3018 RMK A01 T01480022  RH  043%=      5-min Rain = 0
KBO1 041932Z 25001KT 15/03 A3018 RMK A01 T01470025  RH  044%=      5-min Rain = 0
KBO1 041933Z 28004KT 15/02 A3018 RMK A01 T01480022  RH  043%=      5-min Rain = 0
KBO1 041934Z 28006KT 15/03 A3018 RMK A01 T01490028  RH  044%=      5-min Rain = 0
KBO1 041935Z 27008KT 16/04 A3018 RMK A01 T01570035  RH  044%=      5-min Rain = 0
KBO1 041936Z 27007KT 16/02 A3018 RMK A01 T01570024  RH  041%=      5-min Rain = 0
KBO1 041937Z 28005KT 15/02 A3018 RMK A01 T01500023  RH  042%=      5-min Rain = 0
KBO1 041938Z 28008KT 15/03 A3018 RMK A01 T01530030  RH  044%=      5-min Rain = 0
KBO1 041939Z 29009KT 16/03 A3018 RMK A01 T01550029  RH  043%=      5-min Rain = 0
KBO1 041940Z 29010KT 16/03 A3018 RMK A01 T01580031  RH  042%=      5-min Rain = 0
KBO1 041941Z 28007KT 16/03 A3018 RMK A01 T01570025  RH  041%=      5-min Rain = 0
KBO1 041942Z 26006KT 15/03 A3018 RMK A01 T01530026  RH  043%=      5-min Rain = 0
KBO1 041943Z 26007KT 15/03 A3018 RMK A01 T01540027  RH  043%=      5-min Rain = 0
KBO1 041944Z 26004KT 15/03 A3018 RMK A01 T01540026  RH  042%=      5-min Rain = 0
KBO1 041945Z 28005KT 15/03 A3018 RMK A01 T01540029  RH  043%=      5-min Rain = 0
KBO1 041946Z 28008KT 16/03 A3018 RMK A01 T01570030  RH  043%=      5-min Rain = 0
KBO1 041947Z 26006KT 16/02 A3017 RMK A01 T01570022  RH  040%=      5-min Rain = 0
KBO1 041948Z 24003KT 15/02 A3017 RMK A01 T01500020  RH  041%=      5-min Rain = 0
KBO1 041949Z 24006KT 15/03 A3017 RMK A01 T01490025  RH  043%=      5-min Rain = 0
KBO1 041950Z 23004KT 15/02 A3017 RMK A01 T01480023  RH  043%=      5-min Rain = 0
KBO1 041951Z 25002KT 15/02 A3017 RMK A01 T01460021  RH  043%=      5-min Rain = 0
KBO1 041952Z 35006KT 14/02 A3017 RMK A01 T01420020  RH  044%=      5-min Rain = 0
KBO1 041953Z 34006KT 14/02 A3017 RMK A01 T01400020  RH  044%=      5-min Rain = 0
KBO1 041954Z 36005KT 14/02 A3017 RMK A01 T01400022  RH  045%=      5-min Rain = 0
KBO1 041955Z 35005KT 14/02 A3017 RMK A01 T01420023  RH  045%=      5-min Rain = 0
KBO1 041956Z 34004KT 14/02 A3017 RMK A01 T01440023  RH  044%=      5-min Rain = 0
KBO1 041957Z 32004KT 15/02 A3017 RMK A01 T01450023  RH  044%=      5-min Rain = 0
KBO1 041958Z 28006KT 15/03 A3017 RMK A01 T01500028  RH  044%=      5-min Rain = 0
KBO1 041959Z 27008KT 16/03 A3017 RMK A01 T01550031  RH  043%=      5-min Rain = 0
KBO1 042000Z 26008KT 16/03 A3017 RMK A01 T01570026  RH  042%=      5-min Rain = 0
KBO1 042001Z 24006KT 15/03 A3017 RMK A01 T01540026  RH  042%=      5-min Rain = 0
KBO1 042002Z 27009KT 15/03 A3017 RMK A01 T01530027  RH  043%=      5-min Rain = 0
KBO1 042003Z 28007KT 15/02 A3017 RMK A01 T01530023  RH  042%=      5-min Rain = 0
KBO1 042004Z 28005KT 15/03 A3017 RMK A01 T01500025  RH  043%=      5-min Rain = 0
KBO1 042005Z 28005KT 15/03 A3017 RMK A01 T01520026  RH  043%=      5-min Rain = 0
KBO1 042006Z 29003KT 15/02 A3017 RMK A01 T01520022  RH  041%=      5-min Rain = 0
KBO1 042007Z 30003KT 15/03 A3017 RMK A01 T01500026  RH  043%=      5-min Rain = 0
KBO1 042008Z 30004KT 15/03 A3017 RMK A01 T01530027  RH  043%=      5-min Rain = 0
KBO1 042009Z 35006G11KT 15/03 A3017 RMK A01 T01530025  RH  042%=      5-min Rain = 0
KBO1 042010Z 35008KT 15/03 A3017 RMK A01 T01510027  RH  043%=      5-min Rain = 0
KBO1 042011Z 33006KT 15/02 A3017 RMK A01 T01480023  RH  043%=      5-min Rain = 0
KBO1 042012Z 33005KT 14/02 A3017 RMK A01 T01440022  RH  044%=      5-min Rain = 0
KBO1 042013Z 33003KT 14/02 A3017 RMK A01 T01420022  RH  044%=      5-min Rain = 0
KBO1 042014Z 33004KT 14/02 A3017 RMK A01 T01410022  RH  045%=      5-min Rain = 0
KBO1 042015Z 34008KT 14/03 A3017 RMK A01 T01440027  RH  045%=      5-min Rain = 0
KBO1 042016Z 01009KT 15/03 A3017 RMK A01 T01470027  RH  044%=      5-min Rain = 0
KBO1 042017Z 36008KT 15/03 A3017 RMK A01 T01480026  RH  044%=      5-min Rain = 0
KBO1 042018Z 35010KT 15/03 A3016 RMK A01 T01510030  RH  044%=      5-min Rain = 0
KBO1 042019Z 35007KT 16/03 A3017 RMK A01 T01550028  RH  042%=      5-min Rain = 0
KBO1 042020Z 02008KT 15/03 A3016 RMK A01 T01540028  RH  042%=      5-min Rain = 0
KBO1 042021Z 02005KT 16/03 A3016 RMK A01 T01560030  RH  043%=      5-min Rain = 0
KBO1 042022Z 36006KT 16/03 A3016 RMK A01 T01560026  RH  041%=      5-min Rain = 0
KBO1 042023Z 01004KT 15/03 A3016 RMK A01 T01540027  RH  042%=      5-min Rain = 0
KBO1 042024Z 36005KT 15/03 A3016 RMK A01 T01540026  RH  042%=      5-min Rain = 0
KBO1 042025Z 36005KT 15/02 A3016 RMK A01 T01530024  RH  042%=      5-min Rain = 0
KBO1 042026Z 35005KT 15/03 A3016 RMK A01 T01530028  RH  043%=      5-min Rain = 0
KBO1 042027Z 34007KT 16/03 A3016 RMK A01 T01550027  RH  042%=      5-min Rain = 0
KBO1 042028Z 32007KT 15/03 A3016 RMK A01 T01540027  RH  042%=      5-min Rain = 0
KBO1 042029Z 26005KT 15/03 A3016 RMK A01 T01530025  RH  042%=      5-min Rain = 0
KBO1 042030Z 26005KT 15/03 A3016 RMK A01 T01520027  RH  043%=      5-min Rain = 0
KBO1 042031Z 25004KT 15/03 A3016 RMK A01 T01530025  RH  042%=      5-min Rain = 0
KBO1 042032Z 21003KT 15/03 A3016 RMK A01 T01530026  RH  042%=      5-min Rain = 0
KBO1 042033Z 15002KT 16/03 A3016 RMK A01 T01550027  RH  042%=      5-min Rain = 0
KBO1 042034Z 17002KT 16/03 A3016 RMK A01 T01560027  RH  042%=      5-min Rain = 0
KBO1 042035Z 21005KT 16/03 A3015 RMK A01 T01590029  RH  042%=      5-min Rain = 0
KBO1 042036Z 33006KT 16/03 A3015 RMK A01 T01630032  RH  041%=      5-min Rain = 0
KBO1 042037Z 32007KT 16/03 A3015 RMK A01 T01630029  RH  041%=      5-min Rain = 0
KBO1 042038Z 29007KT 17/03 A3015 RMK A01 T01650032  RH  041%=      5-min Rain = 0
KBO1 042039Z 28004KT 17/03 A3015 RMK A01 T01670030  RH  040%=      5-min Rain = 0
KBO1 042040Z 26006KT 16/03 A3015 RMK A01 T01640027  RH  040%=      5-min Rain = 0
KBO1 042041Z 25005KT 16/03 A3015 RMK A01 T01610026  RH  040%=      5-min Rain = 0
KBO1 042042Z 24004KT 16/03 A3015 RMK A01 T01580025  RH  041%=      5-min Rain = 0
KBO1 042043Z 23004KT 16/03 A3015 RMK A01 T01570025  RH  041%=      5-min Rain = 0
KBO1 042044Z 22001KT 16/02 A3015 RMK A01 T01570023  RH  040%=      5-min Rain = 0
KBO1 042045Z 31002G9KT 16/03 A3015 RMK A01 T01560027  RH  042%=      5-min Rain = 0
KBO1 042046Z 32008KT 16/03 A3015 RMK A01 T01560027  RH  042%=      5-min Rain = 0
KBO1 042047Z 31005KT 16/03 A3015 RMK A01 T01560027  RH  042%=      5-min Rain = 0
KBO1 042048Z 21000KT 15/02 A3015 RMK A01 T01540023  RH  041%=      5-min Rain = 0
KBO1 042049Z 31005G11KT 15/03 A3015 RMK A01 T01520026  RH  043%=      5-min Rain = 0
KBO1 042050Z 31008KT 16/03 A3015 RMK A01 T01560030  RH  043%=      5-min Rain = 0
KBO1 042051Z 33009KT 16/03 A3015 RMK A01 T01600032  RH  042%=      5-min Rain = 0
KBO1 042052Z 31010KT 16/03 A3014 RMK A01 T01630032  RH  041%=      5-min Rain = 0
KBO1 042053Z 30011KT 17/03 A3014 RMK A01 T01660033  RH  041%=      5-min Rain = 0
KBO1 042054Z 29009G14KT 17/03 A3014 RMK A01 T01650029  RH  040%=      5-min Rain = 0
KBO1 042055Z 28006KT 16/03 A3014 RMK A01 T01620028  RH  041%=      5-min Rain = 0
KBO1 042056Z 29009KT 16/03 A3014 RMK A01 T01610031  RH  042%=      5-min Rain = 0
KBO1 042057Z 29008KT 16/03 A3014 RMK A01 T01640032  RH  041%=      5-min Rain = 0
KBO1 042058Z 30007G12KT 16/03 A3014 RMK A01 T01640029  RH  040%=      5-min Rain = 0
KBO1 042059Z 30005KT 16/03 A3014 RMK A01 T01620028  RH  041%=      5-min Rain = 0
KBO1 042100Z 29007KT 16/03 A3014 RMK A01 T01600028  RH  041%=      5-min Rain = 0
KBO1 042101Z 29007KT 16/03 A3014 RMK A01 T01590029  RH  042%=      5-min Rain = 0
KBO1 042102Z 30007KT 16/03 A3014 RMK A01 T01590028  RH  041%=      5-min Rain = 0
KBO1 042103Z 28007KT 16/03 A3014 RMK A01 T01580029  RH  042%=      5-min Rain = 0
KBO1 042104Z 29007KT 16/03 A3014 RMK A01 T01600030  RH  042%=      5-min Rain = 0
KBO1 042105Z 27005KT 16/03 A3014 RMK A01 T01640033  RH  042%=      5-min Rain = 0
KBO1 042106Z 27004KT 17/03 A3014 RMK A01 T01660030  RH  040%=      5-min Rain = 0
KBO1 042107Z 25004KT 17/03 A3014 RMK A01 T01650030  RH  040%=      5-min Rain = 0
KBO1 042108Z 27005KT 16/03 A3014 RMK A01 T01630028  RH  040%=      5-min Rain = 0
KBO1 042109Z 26002KT 16/03 A3014 RMK A01 T01620029  RH  041%=      5-min Rain = 0
KBO1 042110Z 21005KT 16/03 A3014 RMK A01 T01630030  RH  041%=      5-min Rain = 0
KBO1 042111Z 21005KT 16/03 A3014 RMK A01 T01630027  RH  040%=      5-min Rain = 0
KBO1 042112Z 21003KT 16/03 A3014 RMK A01 T01580025  RH  041%=      5-min Rain = 0
KBO1 042113Z 18002KT 16/02 A3014 RMK A01 T01550024  RH  041%=      5-min Rain = 0
KBO1 042114Z 24002KT 15/03 A3014 RMK A01 T01540025  RH  042%=      5-min Rain = 0
KBO1 042115Z 27007KT 16/03 A3014 RMK A01 T01550029  RH  043%=      5-min Rain = 0
KBO1 042116Z 28010KT 16/03 A3014 RMK A01 T01600031  RH  042%=      5-min Rain = 0
KBO1 042117Z 29011KT 16/03 A3014 RMK A01 T01610032  RH  042%=      5-min Rain = 0
KBO1 042118Z 28008KT 16/03 A3014 RMK A01 T01610030  RH  041%=      5-min Rain = 0
KBO1 042119Z 29010KT 16/03 A3014 RMK A01 T01610033  RH  042%=      5-min Rain = 0
KBO1 042120Z 30011KT 16/03 A3014 RMK A01 T01640032  RH  041%=      5-min Rain = 0
KBO1 042121Z 30008KT 16/03 A3014 RMK A01 T01630029  RH  041%=      5-min Rain = 0
KBO1 042122Z 29004KT 16/03 A3014 RMK A01 T01600029  RH  041%=      5-min Rain = 0
KBO1 042123Z 22006KT 16/03 A3014 RMK A01 T01600030  RH  042%=      5-min Rain = 0
KBO1 042124Z 24003KT 16/03 A3014 RMK A01 T01580026  RH  041%=      5-min Rain = 0
KBO1 042125Z 28003KT 15/03 A3014 RMK A01 T01540026  RH  042%=      5-min Rain = 0
KBO1 042126Z 31008KT 16/03 A3014 RMK A01 T01550030  RH  043%=      5-min Rain = 0
KBO1 042127Z 30009KT 16/03 A3014 RMK A01 T01580031  RH  042%=      5-min Rain = 0
KBO1 042128Z 32006KT 16/03 A3014 RMK A01 T01590029  RH  042%=      5-min Rain = 0
KBO1 042129Z 33005KT 16/03 A3014 RMK A01 T01580029  RH  042%=      5-min Rain = 0
KBO1 042130Z 33005KT 16/03 A3013 RMK A01 T01570027  RH  042%=      5-min Rain = 0
KBO1 042131Z 36003KT 16/03 A3013 RMK A01 T01550028  RH  042%=      5-min Rain = 0
KBO1 042132Z 01002KT 16/03 A3013 RMK A01 T01550026  RH  042%=      5-min Rain = 0
KBO1 042133Z 36008KT 16/03 A3013 RMK A01 T01550028  RH  043%=      5-min Rain = 0
KBO1 042134Z 36007KT 16/03 A3013 RMK A01 T01560028  RH  042%=      5-min Rain = 0
KBO1 042135Z 01005KT 16/03 A3013 RMK A01 T01560029  RH  042%=      5-min Rain = 0
KBO1 042136Z 02005KT 16/03 A3013 RMK A01 T01590033  RH  043%=      5-min Rain = 0
KBO1 042137Z 02004KT 16/03 A3013 RMK A01 T01630033  RH  042%=      5-min Rain = 0
KBO1 042138Z 31005KT 16/03 A3013 RMK A01 T01640030  RH  041%=      5-min Rain = 0
KBO1 042139Z 27006KT 16/03 A3013 RMK A01 T01620028  RH  041%=      5-min Rain = 0
KBO1 042140Z 32003KT 16/03 A3013 RMK A01 T01620033  RH  042%=      5-min Rain = 0
KBO1 042141Z 30002KT 16/03 A3013 RMK A01 T01640031  RH  041%=      5-min Rain = 0
KBO1 042142Z 25002KT 17/03 A3012 RMK A01 T01650029  RH  040%=      5-min Rain = 0
KBO1 042143Z 26003KT 17/03 A3012 RMK A01 T01650029  RH  040%=      5-min Rain = 0
KBO1 042144Z 26006KT 16/03 A3012 RMK A01 T01640030  RH  041%=      5-min Rain = 0
KBO1 042145Z 26006KT 17/03 A3012 RMK A01 T01650031  RH  041%=      5-min Rain = 0
KBO1 042146Z 28009KT 17/03 A3012 RMK A01 T01650031  RH  041%=      5-min Rain = 0
KBO1 042147Z 28008KT 16/03 A3012 RMK A01 T01640031  RH  041%=      5-min Rain = 0
KBO1 042148Z 26008KT 17/03 A3012 RMK A01 T01650031  RH  041%=      5-min Rain = 0
KBO1 042149Z 26006KT 17/03 A3012 RMK A01 T01650031  RH  041%=      5-min Rain = 0
KBO1 042150Z 27007KT 17/03 A3012 RMK A01 T01650030  RH  041%=      5-min Rain = 0
KBO1 042151Z 27005KT 16/03 A3012 RMK A01 T01620026  RH  040%=      5-min Rain = 0
KBO1 042152Z 27008KT 16/03 A3012 RMK A01 T01600030  RH  042%=      5-min Rain = 0
KBO1 042153Z 27007KT 16/03 A3012 RMK A01 T01620032  RH  042%=      5-min Rain = 0
KBO1 042154Z 27005KT 16/03 A3012 RMK A01 T01620028  RH  041%=      5-min Rain = 0
KBO1 042155Z 26002KT 16/03 A3012 RMK A01 T01590030  RH  042%=      5-min Rain = 0
KBO1 042156Z 27004KT 16/03 A3012 RMK A01 T01580028  RH  042%=      5-min Rain = 0
KBO1 042157Z 28007KT 16/03 A3012 RMK A01 T01570031  RH  043%=      5-min Rain = 0
KBO1 042158Z 31008KT 16/03 A3012 RMK A01 T01590032  RH  043%=      5-min Rain = 0
KBO1 042159Z 30005KT 16/03 A3012 RMK A01 T01600030  RH  042%=      5-min Rain = 0
KBO1 042200Z 32005KT 16/03 A3012 RMK A01 T01600030  RH  042%=      5-min Rain = 0
KBO1 042201Z 34002KT 16/03 A3012 RMK A01 T01600029  RH  041%=      5-min Rain = 0
KBO1 042202Z 34006KT 16/03 A3012 RMK A01 T01600030  RH  042%=      5-min Rain = 0
KBO1 042203Z 34006KT 16/03 A3012 RMK A01 T01610029  RH  041%=      5-min Rain = 0
KBO1 042204Z 00005KT 16/03 A3012 RMK A01 T01600028  RH  041%=      5-min Rain = 0
KBO1 042205Z 36003KT 16/03 A3012 RMK A01 T01590029  RH  042%=      5-min Rain = 0
KBO1 042206Z 32003KT 16/03 A3012 RMK A01 T01600029  RH  042%=      5-min Rain = 0
KBO1 042207Z 27003KT 16/03 A3012 RMK A01 T01610029  RH  041%=      5-min Rain = 0
KBO1 042208Z 28007KT 16/03 A3012 RMK A01 T01630032  RH  042%=      5-min Rain = 0
KBO1 042209Z 28007KT 17/03 A3012 RMK A01 T01670032  RH  041%=      5-min Rain = 0
KBO1 042210Z 29009KT 17/03 A3012 RMK A01 T01660033  RH  041%=      5-min Rain = 0
KBO1 042211Z 29007KT 17/03 A3012 RMK A01 T01660032  RH  041%=      5-min Rain = 0
KBO1 042212Z 29006KT 17/03 A3011 RMK A01 T01660033  RH  041%=      5-min Rain = 0
KBO1 042213Z 33003KT 17/03 A3011 RMK A01 T01670031  RH  040%=      5-min Rain = 0
KBO1 042214Z 30001KT 17/03 A3011 RMK A01 T01650029  RH  040%=      5-min Rain = 0
KBO1 042215Z 28006KT 16/03 A3011 RMK A01 T01640032  RH  041%=      5-min Rain = 0
KBO1 042216Z 28007KT 17/03 A3011 RMK A01 T01650032  RH  041%=      5-min Rain = 0
KBO1 042217Z 26007KT 17/03 A3011 RMK A01 T01670033  RH  041%=      5-min Rain = 0
KBO1 042218Z 24006KT 17/03 A3011 RMK A01 T01670031  RH  040%=      5-min Rain = 0
KBO1 042219Z 25005KT 17/03 A3011 RMK A01 T01670032  RH  040%=      5-min Rain = 0
KBO1 042220Z 23009KT 17/03 A3011 RMK A01 T01670032  RH  041%=      5-min Rain = 0
KBO1 042221Z 21008KT 17/03 A3011 RMK A01 T01680032  RH  040%=      5-min Rain = 0
KBO1 042222Z 20008KT 17/03 A3011 RMK A01 T01670030  RH  040%=      5-min Rain = 0
KBO1 042223Z 23006KT 17/03 A3011 RMK A01 T01650032  RH  041%=      5-min Rain = 0
KBO1 042224Z 27009KT 17/03 A3011 RMK A01 T01670034  RH  041%=      5-min Rain = 0
KBO1 042225Z 26008KT 17/03 A3011 RMK A01 T01690032  RH  040%=      5-min Rain = 0
KBO1 042226Z 26006KT 17/03 A3011 RMK A01 T01670033  RH  041%=      5-min Rain = 0
KBO1 042227Z 27005KT 17/03 A3011 RMK A01 T01690032  RH  040%=      5-min Rain = 0
KBO1 042228Z 24006KT 17/03 A3011 RMK A01 T01670032  RH  041%=      5-min Rain = 0
KBO1 042229Z 26005KT 17/03 A3011 RMK A01 T01690032  RH  040%=      5-min Rain = 0
KBO1 042230Z 22003KT 17/03 A3011 RMK A01 T01690031  RH  040%=      5-min Rain = 0
KBO1 042231Z 18004KT 17/03 A3011 RMK A01 T01690031  RH  040%=      5-min Rain = 0
KBO1 042232Z 17004KT 17/03 A3011 RMK A01 T01680029  RH  039%=      5-min Rain = 0
KBO1 042233Z 17006KT 17/03 A3011 RMK A01 T01670031  RH  040%=      5-min Rain = 0
KBO1 042234Z 15003KT 17/03 A3011 RMK A01 T01660029  RH  040%=      5-min Rain = 0
KBO1 042235Z 16005KT 17/03 A3011 RMK A01 T01660031  RH  041%=      5-min Rain = 0
KBO1 042236Z 18004KT 17/03 A3011 RMK A01 T01670034  RH  041%=      5-min Rain = 0
KBO1 042237Z 22003KT 17/03 A3011 RMK A01 T01700034  RH  040%=      5-min Rain = 0
KBO1 042238Z 25003KT 17/03 A3011 RMK A01 T01710033  RH  040%=      5-min Rain = 0
KBO1 042239Z 31001KT 17/03 A3011 RMK A01 T01720034  RH  040%=      5-min Rain = 0
KBO1 042240Z 31002KT 17/04 A3011 RMK A01 T01730035  RH  040%=      5-min Rain = 0
KBO1 042241Z 28007G13KT 17/03 A3011 RMK A01 T01740034  RH  039%=      5-min Rain = 0
KBO1 042242Z 30009KT 17/03 A3011 RMK A01 T01740033  RH  039%=      5-min Rain = 0
KBO1 042243Z 32007KT 17/03 A3011 RMK A01 T01700030  RH  039%=      5-min Rain = 0
KBO1 042244Z 34004KT 17/03 A3011 RMK A01 T01660028  RH  040%=      5-min Rain = 0
KBO1 042245Z 29004KT 17/03 A3011 RMK A01 T01650032  RH  041%=      5-min Rain = 0
KBO1 042246Z 29007KT 17/03 A3011 RMK A01 T01680033  RH  041%=      5-min Rain = 0
KBO1 042247Z 28008KT 17/03 A3011 RMK A01 T01690033  RH  040%=      5-min Rain = 0
KBO1 042248Z 29005KT 17/03 A3011 RMK A01 T01680033  RH  040%=      5-min Rain = 0
KBO1 042249Z 29005KT 17/03 A3011 RMK A01 T01690032  RH  040%=      5-min Rain = 0
KBO1 042250Z 28003KT 17/03 A3011 RMK A01 T01680033  RH  040%=      5-min Rain = 0
KBO1 042251Z 23003KT 17/03 A3011 RMK A01 T01680032  RH  040%=      5-min Rain = 0
KBO1 042252Z 23003KT 17/03 A3011 RMK A01 T01680032  RH  040%=      5-min Rain = 0
KBO1 042253Z 23002KT 17/03 A3011 RMK A01 T01690032  RH  040%=      5-min Rain = 0
KBO1 042254Z 22000KT 17/03 A3011 RMK A01 T01690032  RH  040%=      5-min Rain = 0
KBO1 042255Z 00000KT 17/03 A3011 RMK A01 T01690031  RH  040%=      5-min Rain = 0
KBO1 042256Z 04001KT 17/03 A3011 RMK A01 T01690031  RH  040%=      5-min Rain = 0
KBO1 042257Z 07003KT 17/03 A3011 RMK A01 T01700033  RH  040%=      5-min Rain = 0
KBO1 042258Z 09002KT 17/03 A3011 RMK A01 T01710033  RH  040%=      5-min Rain = 0
KBO1 042259Z 06001KT 17/04 A3011 RMK A01 T01710035  RH  040%=      5-min Rain = 0
KBO1 042300Z 24002KT 17/03 A3011 RMK A01 T01720033  RH  039%=      5-min Rain = 0
KBO1 042301Z 28005KT 17/04 A3011 RMK A01 T01740037  RH  040%=      5-min Rain = 0
KBO1 042302Z 29005KT 18/03 A3011 RMK A01 T01760034  RH  039%=      5-min Rain = 0
KBO1 042303Z 30004KT 18/03 A3011 RMK A01 T01750033  RH  039%=      5-min Rain = 0
KBO1 042304Z 29005KT 17/03 A3011 RMK A01 T01730033  RH  039%=      5-min Rain = 0
KBO1 042305Z 27007KT 17/03 A3011 RMK A01 T01710033  RH  040%=      5-min Rain = 0
KBO1 042306Z 28007KT 17/04 A3011 RMK A01 T01720035  RH  040%=      5-min Rain = 0
KBO1 042307Z 27007KT 17/04 A3011 RMK A01 T01740037  RH  040%=      5-min Rain = 0
KBO1 042308Z 28006KT 18/03 A3011 RMK A01 T01750030  RH  038%=      5-min Rain = 0
KBO1 042309Z 25009G15KT 17/03 A3011 RMK A01 T01740032  RH  039%=      5-min Rain = 0
KBO1 042310Z 23006KT 18/03 A3011 RMK A01 T01750032  RH  038%=      5-min Rain = 0
KBO1 042311Z 26009KT 18/03 A3011 RMK A01 T01760034  RH  039%=      5-min Rain = 0
KBO1 042312Z 26010KT 18/03 A3011 RMK A01 T01770033  RH  038%=      5-min Rain = 0
KBO1 042313Z 24011KT 18/03 A3011 RMK A01 T01770034  RH  039%=      5-min Rain = 0
KBO1 042314Z 24008KT 18/03 A3011 RMK A01 T01770031  RH  038%=      5-min Rain = 0
KBO1 042315Z 24005KT 17/03 A3011 RMK A01 T01740029  RH  038%=      5-min Rain = 0
KBO1 042316Z 23007KT 17/03 A3011 RMK A01 T01720028  RH  038%=      5-min Rain = 0
KBO1 042317Z 24005KT 17/03 A3011 RMK A01 T01710032  RH  039%=      5-min Rain = 0
KBO1 042318Z 29011KT 17/03 A3011 RMK A01 T01720033  RH  039%=      5-min Rain = 0
KBO1 042319Z 29009KT 17/03 A3011 RMK A01 T01740034  RH  039%=      5-min Rain = 0
KBO1 042320Z 29008KT 18/03 A3011 RMK A01 T01750033  RH  039%=      5-min Rain = 0
KBO1 042321Z 29008KT 17/03 A3011 RMK A01 T01740034  RH  039%=      5-min Rain = 0
KBO1 042322Z 28009KT 17/03 A3011 RMK A01 T01730034  RH  039%=      5-min Rain = 0
KBO1 042323Z 27008KT 17/03 A3011 RMK A01 T01710032  RH  039%=      5-min Rain = 0
KBO1 042324Z 27008KT 17/03 A3011 RMK A01 T01700032  RH  040%=      5-min Rain = 0
KBO1 042325Z 27007KT 17/03 A3011 RMK A01 T01690034  RH  040%=      5-min Rain = 0
KBO1 042326Z 28006KT 17/03 A3011 RMK A01 T01700032  RH  040%=      5-min Rain = 0
KBO1 042327Z 29004KT 17/03 A3011 RMK A01 T01690032  RH  040%=      5-min Rain = 0
KBO1 042328Z 29003KT 17/03 A3011 RMK A01 T01690032  RH  040%=      5-min Rain = 0
KBO1 042329Z 25006KT 17/04 A3011 RMK A01 T01700035  RH  040%=      5-min Rain = 0
KBO1 042330Z 24005KT 17/03 A3011 RMK A01 T01730034  RH  040%=      5-min Rain = 0
KBO1 042331Z 24006KT 17/03 A3011 RMK A01 T01720033  RH  039%=      5-min Rain = 0
KBO1 042332Z 25007KT 17/03 A3011 RMK A01 T01720034  RH  040%=      5-min Rain = 0
KBO1 042333Z 28005KT 17/03 A3011 RMK A01 T01720032  RH  039%=      5-min Rain = 0
KBO1 042334Z 26006KT 17/03 A3011 RMK A01 T01710032  RH  040%=      5-min Rain = 0
KBO1 042335Z 26005KT 17/03 A3011 RMK A01 T01700032  RH  039%=      5-min Rain = 0
KBO1 042336Z 29006KT 17/03 A3011 RMK A01 T01700032  RH  040%=      5-min Rain = 0
KBO1 042337Z 30005KT 17/03 A3011 RMK A01 T01700031  RH  039%=      5-min Rain = 0
KBO1 042338Z 30003KT 17/03 A3011 RMK A01 T01700031  RH  039%=      5-min Rain = 0
KBO1 042339Z 29003KT 17/03 A3011 RMK A01 T01700031  RH  039%=      5-min Rain = 0
KBO1 042340Z 28002KT 17/03 A3011 RMK A01 T01700031  RH  039%=      5-min Rain = 0
KBO1 042341Z 29003KT 17/03 A3011 RMK A01 T01710031  RH  039%=      5-min Rain = 0
KBO1 042342Z 30005KT 17/03 A3011 RMK A01 T01720033  RH  040%=      5-min Rain = 0
KBO1 042343Z 29005KT 17/04 A3011 RMK A01 T01730036  RH  040%=      5-min Rain = 0
KBO1 042344Z 30005KT 17/03 A3011 RMK A01 T01740034  RH  039%=      5-min Rain = 0
KBO1 042345Z 30005KT 17/03 A3011 RMK A01 T01740034  RH  039%=      5-min Rain = 0
KBO1 042346Z 30004KT 17/03 A3011 RMK A01 T01730033  RH  039%=      5-min Rain = 0
KBO1 042347Z 33003KT 17/03 A301 RMK A01 T01720033  RH  040%=      5-min Rain = 0
KBO1 042348Z 30003KT 17/03 A301 RMK A01 T01720034  RH  040%=      5-min Rain = 0
KBO1 042349Z 28003KT 17/04 A301 RMK A01 T01740036  RH  040%=      5-min Rain = 0
KBO1 042350Z 25005KT 18/03 A3011 RMK A01 T01760034  RH  039%=      5-min Rain = 0
KBO1 042351Z 26007KT 18/04 A301 RMK A01 T01760036  RH  039%=      5-min Rain = 0
KBO1 042352Z 26007KT 18/03 A301 RMK A01 T01760033  RH  039%=      5-min Rain = 0
KBO1 042353Z 23008KT 17/03 A301 RMK A01 T01730032  RH  039%=      5-min Rain = 0
KBO1 042354Z 20004KT 17/03 A301 RMK A01 T01720032  RH  039%=      5-min Rain = 0
KBO1 042355Z 21004KT 17/04 A301 RMK A01 T01720035  RH  040%=      5-min Rain = 0
KBO1 042356Z 25004KT 17/04 A301 RMK A01 T01740035  RH  040%=      5-min Rain = 0
KBO1 042357Z 27005KT 18/04 A301 RMK A01 T01750035  RH  039%=      5-min Rain = 0
KBO1 042358Z 26005KT 18/03 A301 RMK A01 T01760034  RH  039%=      5-min Rain = 0
KBO1 042359Z 26003KT 17/03 A301 RMK A01 T01740033  RH  039%=      5-min Rain = 0
KBO1 050000Z 25003KT 17/03 A3011 RMK A01 T01730034  RH  039%=      5-min Rain = 0
KBO1 050001Z 24007KT 17/03 A3011 RMK A01 T01730034  RH  039%=      5-min Rain = 0
KBO1 050002Z 23005KT 17/03 A3011 RMK A01 T01740034  RH  039%=      5-min Rain = 0
KBO1 050003Z 23004KT 17/03 A301 RMK A01 T01740033  RH  039%=      5-min Rain = 0
KBO1 050004Z 27004KT 17/03 A301 RMK A01 T01730034  RH  039%=      5-min Rain = 0
KBO1 050005Z 25003KT 17/03 A301 RMK A01 T01730031  RH  039%=      5-min Rain = 0
KBO1 050006Z 17001KT 17/03 A301 RMK A01 T01730032  RH  039%=      5-min Rain = 0
KBO1 050007Z 18002KT 17/03 A301 RMK A01 T01730029  RH  038%=      5-min Rain = 0
KBO1 050008Z 24003KT 17/03 A301 RMK A01 T01720030  RH  038%=      5-min Rain = 0
KBO1 050009Z 22005KT 17/03 A301 RMK A01 T01730032  RH  039%=      5-min Rain = 0
KBO1 050010Z 24003KT 17/03 A301 RMK A01 T01740032  RH  039%=      5-min Rain = 0
KBO1 050011Z 26004KT 18/03 A301 RMK A01 T01750031  RH  038%=      5-min Rain = 0
KBO1 050012Z 25004G11KT 18/03 A301 RMK A01 T01750027  RH  037%=      5-min Rain = 0
KBO1 050013Z 21010KT 18/03 A301 RMK A01 T01750028  RH  038%=      5-min Rain = 0
KBO1 050014Z 21008KT 17/03 A301 RMK A01 T01740030  RH  038%=      5-min Rain = 0
KBO1 050015Z 19007KT 17/03 A301 RMK A01 T01740031  RH  038%=      5-min Rain = 0
KBO1 050016Z 20007KT 18/03 A301 RMK A01 T01750029  RH  038%=      5-min Rain = 0
KBO1 050017Z 20005KT 17/03 A301 RMK A01 T01730027  RH  038%=      5-min Rain = 0
KBO1 050018Z 22004KT 17/03 A301 RMK A01 T01730028  RH  038%=      5-min Rain = 0
KBO1 050019Z 21005KT 17/03 A301 RMK A01 T01720026  RH  038%=      5-min Rain = 0
KBO1 050020Z 18006KT 17/03 A301 RMK A01 T01730029  RH  038%=      5-min Rain = 0
KBO1 050021Z 18006KT 17/03 A301 RMK A01 T01730028  RH  038%=      5-min Rain = 0
KBO1 050022Z 20007KT 17/03 A301 RMK A01 T01730031  RH  039%=      5-min Rain = 0
KBO1 050023Z 19008KT 17/03 A301 RMK A01 T01730028  RH  038%=      5-min Rain = 0
KBO1 050024Z 19007KT 17/03 A301 RMK A01 T01720029  RH  038%=      5-min Rain = 0
KBO1 050025Z 18009KT 17/03 A301 RMK A01 T01720030  RH  039%=      5-min Rain = 0
KBO1 050026Z 19009KT 17/03 A301 RMK A01 T01720030  RH  039%=      5-min Rain = 0
KBO1 050027Z 20010KT 17/03 A301 RMK A01 T01710030  RH  039%=      5-min Rain = 0
KBO1 050028Z 20008KT 17/03 A301 RMK A01 T01710030  RH  039%=      5-min Rain = 0
KBO1 050029Z 19007KT 17/03 A301 RMK A01 T01710029  RH  039%=      5-min Rain = 0
KBO1 050030Z 18005KT 17/03 A301 RMK A01 T01700029  RH  039%=      5-min Rain = 0
KBO1 050031Z 17005KT 17/03 A3009 RMK A01 T01700030  RH  039%=      5-min Rain = 0
KBO1 050032Z 18006KT 17/03 A3009 RMK A01 T01700029  RH  039%=      5-min Rain = 0
KBO1 050033Z 18007KT 17/03 A3009 RMK A01 T01700030  RH  039%=      5-min Rain = 0
KBO1 050034Z 19007KT 17/03 A3009 RMK A01 T01700030  RH  039%=      5-min Rain = 0
KBO1 050035Z 18006KT 17/03 A3009 RMK A01 T01700029  RH  039%=      5-min Rain = 0
KBO1 050036Z 17006KT 17/03 A3009 RMK A01 T01700030  RH  039%=      5-min Rain = 0
KBO1 050037Z 18006KT 17/03 A3009 RMK A01 T01700031  RH  040%=      5-min Rain = 0
KBO1 050038Z 18007KT 17/03 A3009 RMK A01 T01700030  RH  039%=      5-min Rain = 0
KBO1 050039Z 19007KT 17/03 A3009 RMK A01 T01700030  RH  039%=      5-min Rain = 0
KBO1 050040Z 19006KT 17/03 A3009 RMK A01 T01690027  RH  038%=      5-min Rain = 0
KBO1 050041Z 17006KT 17/03 A3009 RMK A01 T01690028  RH  039%=      5-min Rain = 0
KBO1 050042Z 17007KT 17/03 A3009 RMK A01 T01680027  RH  039%=      5-min Rain = 0
KBO1 050043Z 17006KT 17/03 A3009 RMK A01 T01680026  RH  039%=      5-min Rain = 0
KBO1 050044Z 17008KT 17/03 A3009 RMK A01 T01680026  RH  039%=      5-min Rain = 0
KBO1 050045Z 19008KT 17/03 A301 RMK A01 T01680027  RH  039%=      5-min Rain = 0
KBO1 050046Z 20008KT 17/03 A3009 RMK A01 T01680028  RH  039%=      5-min Rain = 0
KBO1 050047Z 20008KT 17/03 A3009 RMK A01 T01690028  RH  039%=      5-min Rain = 0
KBO1 050048Z 20008KT 17/03 A3009 RMK A01 T01690029  RH  039%=      5-min Rain = 0
KBO1 050049Z 18008KT 17/03 A301 RMK A01 T01690029  RH  039%=      5-min Rain = 0
KBO1 050050Z 18008KT 17/03 A301 RMK A01 T01680027  RH  039%=      5-min Rain = 0
KBO1 050051Z 20008KT 17/03 A301 RMK A01 T01680028  RH  039%=      5-min Rain = 0
KBO1 050052Z 18007KT 17/03 A301 RMK A01 T01680030  RH  040%=      5-min Rain = 0
KBO1 050053Z 18007KT 17/03 A301 RMK A01 T01680030  RH  040%=      5-min Rain = 0
KBO1 050054Z 19007KT 17/03 A301 RMK A01 T01680030  RH  040%=      5-min Rain = 0
KBO1 050055Z 20007KT 17/03 A301 RMK A01 T01680030  RH  040%=      5-min Rain = 0
KBO1 050056Z 20006KT 17/03 A301 RMK A01 T01680028  RH  039%=      5-min Rain = 0
KBO1 050057Z 20006KT 17/03 A301 RMK A01 T01680027  RH  039%=      5-min Rain = 0
KBO1 050058Z 20007KT 17/03 A301 RMK A01 T01670029  RH  039%=      5-min Rain = 0
KBO1 050059Z 20006KT 17/03 A301 RMK A01 T01670030  RH  040%=      5-min Rain = 0
KBO1 050100Z 19006KT 17/03 A301 RMK A01 T01670030  RH  040%=      5-min Rain = 0
KBO1 050101Z 18008KT 17/03 A301 RMK A01 T01670031  RH  040%=      5-min Rain = 0
KBO1 050102Z 18008KT 17/03 A301 RMK A01 T01660031  RH  040%=      5-min Rain = 0
KBO1 050103Z 18007KT 17/03 A301 RMK A01 T01660030  RH  040%=      5-min Rain = 0
KBO1 050104Z 18007KT 17/03 A301 RMK A01 T01650028  RH  040%=      5-min Rain = 0
KBO1 050105Z 18008KT 17/03 A301 RMK A01 T01650029  RH  040%=      5-min Rain = 0
KBO1 050106Z 17006KT 16/03 A301 RMK A01 T01640030  RH  040%=      5-min Rain = 0
KBO1 050107Z 17007KT 16/03 A301 RMK A01 T01640030  RH  041%=      5-min Rain = 0
KBO1 050108Z 16006KT 16/03 A301 RMK A01 T01640030  RH  041%=      5-min Rain = 0
KBO1 050109Z 16006KT 16/03 A301 RMK A01 T01630031  RH  041%=      5-min Rain = 0
KBO1 050110Z 16006KT 16/03 A301 RMK A01 T01630030  RH  041%=      5-min Rain = 0
KBO1 050111Z 16006KT 16/03 A301 RMK A01 T01630030  RH  041%=      5-min Rain = 0
KBO1 050112Z 16006KT 16/03 A301 RMK A01 T01620031  RH  041%=      5-min Rain = 0
KBO1 050113Z 16006KT 16/03 A301 RMK A01 T01620033  RH  042%=      5-min Rain = 0
KBO1 050114Z 16006KT 16/03 A301 RMK A01 T01610033  RH  042%=      5-min Rain = 0
KBO1 050115Z 16006KT 16/03 A301 RMK A01 T01610032  RH  042%=      5-min Rain = 0
KBO1 050116Z 16005KT 16/03 A301 RMK A01 T01600033  RH  043%=      5-min Rain = 0
KBO1 050117Z 16005KT 16/04 A301 RMK A01 T01600035  RH  043%=      5-min Rain = 0
KBO1 050118Z 16006KT 16/04 A301 RMK A01 T01580035  RH  044%=      5-min Rain = 0
KBO1 050119Z 17006KT 16/03 A301 RMK A01 T01580034  RH  044%=      5-min Rain = 0
KBO1 050120Z 17006KT 16/03 A301 RMK A01 T01570034  RH  044%=      5-min Rain = 0
KBO1 050121Z 16006KT 16/04 A301 RMK A01 T01560035  RH  044%=      5-min Rain = 0
KBO1 050122Z 17007KT 16/04 A301 RMK A01 T01560035  RH  044%=      5-min Rain = 0
KBO1 050123Z 17005KT 16/04 A301 RMK A01 T01550035  RH  045%=      5-min Rain = 0
KBO1 050124Z 16006KT 15/04 A301 RMK A01 T01540036  RH  045%=      5-min Rain = 0
KBO1 050125Z 17006KT 15/04 A301 RMK A01 T01530037  RH  046%=      5-min Rain = 0
KBO1 050126Z 16006KT 15/04 A301 RMK A01 T01520036  RH  046%=      5-min Rain = 0
KBO1 050127Z 16006KT 15/04 A301 RMK A01 T01510035  RH  046%=      5-min Rain = 0
KBO1 050128Z 16006KT 15/04 A301 RMK A01 T01510036  RH  046%=      5-min Rain = 0
KBO1 050129Z 15006KT 15/04 A301 RMK A01 T01500037  RH  047%=      5-min Rain = 0
KBO1 050130Z 15006KT 15/04 A301 RMK A01 T01490037  RH  047%=      5-min Rain = 0
KBO1 050131Z 15006KT 15/04 A301 RMK A01 T01470038  RH  048%=      5-min Rain = 0
KBO1 050132Z 14006KT 15/04 A301 RMK A01 T01460038  RH  048%=      5-min Rain = 0
KBO1 050133Z 14006KT 14/04 A301 RMK A01 T01440038  RH  049%=      5-min Rain = 0
KBO1 050134Z 14006KT 14/04 A301 RMK A01 T01430039  RH  050%=      5-min Rain = 0
KBO1 050135Z 14007KT 14/04 A301 RMK A01 T01410039  RH  050%=      5-min Rain = 0
KBO1 050136Z 13008KT 14/04 A301 RMK A01 T01390039  RH  051%=      5-min Rain = 0
KBO1 050137Z 13008KT 14/04 A301 RMK A01 T01380039  RH  051%=      5-min Rain = 0
KBO1 050138Z 13008KT 14/04 A301 RMK A01 T01360039  RH  052%=      5-min Rain = 0
KBO1 050139Z 12008KT 14/04 A301 RMK A01 T01350039  RH  052%=      5-min Rain = 0
KBO1 050140Z 12008KT 14/04 A301 RMK A01 T01350039  RH  052%=      5-min Rain = 0
KBO1 050141Z 12008KT 13/04 A301 RMK A01 T01340039  RH  053%=      5-min Rain = 0
KBO1 050142Z 12008KT 13/04 A301 RMK A01 T01330039  RH  053%=      5-min Rain = 0
KBO1 050143Z 13007KT 13/04 A301 RMK A01 T01320040  RH  053%=      5-min Rain = 0
KBO1 050144Z 13007KT 13/04 A301 RMK A01 T01320039  RH  053%=      5-min Rain = 0
KBO1 050145Z 13007KT 13/04 A301 RMK A01 T01310039  RH  054%=      5-min Rain = 0
KBO1 050146Z 13007KT 13/04 A301 RMK A01 T01310039  RH  054%=      5-min Rain = 0
KBO1 050147Z 13008KT 13/04 A301 RMK A01 T01300040  RH  054%=      5-min Rain = 0
KBO1 050148Z 13008KT 13/04 A301 RMK A01 T01290039  RH  055%=      5-min Rain = 0
KBO1 050149Z 13008KT 13/04 A301 RMK A01 T01280040  RH  055%=      5-min Rain = 0
KBO1 050150Z 13008KT 13/04 A301 RMK A01 T01280040  RH  055%=      5-min Rain = 0
KBO1 050151Z 13008KT 13/04 A301 RMK A01 T01270040  RH  056%=      5-min Rain = 0
KBO1 050152Z 13008KT 13/04 A301 RMK A01 T01260040  RH  056%=      5-min Rain = 0
KBO1 050153Z 13009KT 13/04 A3011 RMK A01 T01250040  RH  056%=      5-min Rain = 0
KBO1 050154Z 13008KT 13/04 A3011 RMK A01 T01250040  RH  056%=      5-min Rain = 0
KBO1 050155Z 13009KT 12/04 A301 RMK A01 T01240040  RH  057%=      5-min Rain = 0
KBO1 050156Z 13008KT 12/04 A301 RMK A01 T01230040  RH  057%=      5-min Rain = 0
KBO1 050157Z 13009KT 12/04 A3011 RMK A01 T01220040  RH  057%=      5-min Rain = 0
KBO1 050158Z 13009KT 12/04 A3011 RMK A01 T01220040  RH  057%=      5-min Rain = 0
KBO1 050159Z 13009KT 12/04 A3011 RMK A01 T01220040  RH  057%=      5-min Rain = 0
KBO1 050200Z 13008KT 12/04 A3011 RMK A01 T01220040  RH  057%=      5-min Rain = 0
KBO1 050201Z 12008KT 12/04 A3011 RMK A01 T01210040  RH  058%=      5-min Rain = 0
KBO1 050202Z 13008KT 12/04 A3011 RMK A01 T01200040  RH  058%=      5-min Rain = 0
KBO1 050203Z 13008KT 12/04 A3011 RMK A01 T01200040  RH  058%=      5-min Rain = 0
KBO1 050204Z 13008KT 12/04 A3011 RMK A01 T01190040  RH  058%=      5-min Rain = 0
KBO1 050205Z 13008KT 12/04 A3011 RMK A01 T01190040  RH  058%=      5-min Rain = 0
KBO1 050206Z 13007KT 12/04 A3011 RMK A01 T01180040  RH  059%=      5-min Rain = 0
KBO1 050207Z 13007KT 12/04 A3011 RMK A01 T01170040  RH  059%=      5-min Rain = 0
KBO1 050208Z 13008KT 12/04 A3011 RMK A01 T01170040  RH  059%=      5-min Rain = 0
KBO1 050209Z 13008KT 12/04 A3011 RMK A01 T01170040  RH  059%=      5-min Rain = 0
KBO1 050210Z 14007KT 12/04 A3011 RMK A01 T01160040  RH  060%=      5-min Rain = 0
KBO1 050211Z 14007KT 12/04 A3011 RMK A01 T01150041  RH  060%=      5-min Rain = 0
KBO1 050212Z 14007KT 11/04 A3011 RMK A01 T01140041  RH  061%=      5-min Rain = 0
KBO1 050213Z 14008KT 11/04 A3011 RMK A01 T01130041  RH  061%=      5-min Rain = 0
KBO1 050214Z 14008KT 11/04 A3011 RMK A01 T01120041  RH  061%=      5-min Rain = 0
KBO1 050215Z 14008KT 11/04 A3011 RMK A01 T01110040  RH  062%=      5-min Rain = 0
KBO1 050216Z 15008KT 11/04 A3011 RMK A01 T01110041  RH  062%=      5-min Rain = 0
KBO1 050217Z 15008KT 11/04 A3011 RMK A01 T01100041  RH  062%=      5-min Rain = 0
KBO1 050218Z 15008KT 11/04 A3011 RMK A01 T01100041  RH  062%=      5-min Rain = 0
KBO1 050219Z 15008KT 11/04 A3011 RMK A01 T01100041  RH  063%=      5-min Rain = 0
KBO1 050220Z 15009KT 11/04 A3011 RMK A01 T01100042  RH  063%=      5-min Rain = 0
KBO1 050221Z 15009KT 11/04 A3011 RMK A01 T01090041  RH  063%=      5-min Rain = 0
KBO1 050222Z 15009KT 11/04 A3011 RMK A01 T01100042  RH  063%=      5-min Rain = 0
KBO1 050223Z 15009KT 11/04 A3011 RMK A01 T01100042  RH  063%=      5-min Rain = 0
KBO1 050224Z 15009KT 11/04 A3011 RMK A01 T01110042  RH  062%=      5-min Rain = 0
KBO1 050225Z 16009KT 11/04 A3011 RMK A01 T01110042  RH  063%=      5-min Rain = 0
KBO1 050226Z 16009KT 11/04 A3012 RMK A01 T01110042  RH  063%=      5-min Rain = 0
KBO1 050227Z 16009KT 11/04 A3012 RMK A01 T01110043  RH  063%=      5-min Rain = 0
KBO1 050228Z 16009KT 11/04 A3012 RMK A01 T01100044  RH  064%=      5-min Rain = 0
KBO1 050229Z 16009KT 11/04 A3012 RMK A01 T01090044  RH  064%=      5-min Rain = 0
KBO1 050230Z 16010KT 11/04 A3012 RMK A01 T01080044  RH  065%=      5-min Rain = 0
KBO1 050231Z 15010KT 11/04 A3012 RMK A01 T01080044  RH  065%=      5-min Rain = 0
KBO1 050232Z 15010KT 11/04 A3012 RMK A01 T01080043  RH  064%=      5-min Rain = 0
KBO1 050233Z 15010KT 11/04 A3012 RMK A01 T01100043  RH  063%=      5-min Rain = 0
KBO1 050234Z 15010KT 11/04 A3012 RMK A01 T01110043  RH  063%=      5-min Rain = 0
KBO1 050235Z 16009KT 11/04 A3012 RMK A01 T01120043  RH  062%=      5-min Rain = 0
KBO1 050236Z 16009KT 11/04 A3012 RMK A01 T01140043  RH  062%=      5-min Rain = 0
KBO1 050237Z 15009KT 11/04 A3012 RMK A01 T01140043  RH  061%=      5-min Rain = 0
KBO1 050238Z 16009KT 12/04 A3012 RMK A01 T01150042  RH  061%=      5-min Rain = 0
KBO1 050239Z 15009KT 12/04 A3012 RMK A01 T01150042  RH  061%=      5-min Rain = 0
KBO1 050240Z 15009KT 12/04 A3012 RMK A01 T01150042  RH  061%=      5-min Rain = 0
KBO1 050241Z 15009KT 12/04 A3012 RMK A01 T01150042  RH  061%=      5-min Rain = 0
KBO1 050242Z 16009KT 12/04 A3012 RMK A01 T01150042  RH  060%=      5-min Rain = 0
KBO1 050243Z 16009KT 12/04 A3012 RMK A01 T01150041  RH  060%=      5-min Rain = 0
KBO1 050244Z 16009KT 12/04 A3012 RMK A01 T01150041  RH  060%=      5-min Rain = 0
KBO1 050245Z 16009KT 12/04 A3012 RMK A01 T01150042  RH  061%=      5-min Rain = 0
KBO1 050246Z 16009KT 12/04 A3012 RMK A01 T01150042  RH  061%=      5-min Rain = 0
KBO1 050247Z 16009KT 11/04 A3012 RMK A01 T01130042  RH  062%=      5-min Rain = 0
KBO1 050248Z 17009KT 11/04 A3012 RMK A01 T01120042  RH  062%=      5-min Rain = 0
KBO1 050249Z 17009KT 11/04 A3012 RMK A01 T01110042  RH  062%=      5-min Rain = 0
KBO1 050250Z 16010KT 11/04 A3013 RMK A01 T01100041  RH  063%=      5-min Rain = 0
KBO1 050251Z 16010KT 11/04 A3013 RMK A01 T01090041  RH  062%=      5-min Rain = 0
KBO1 050252Z 17010KT 11/04 A3013 RMK A01 T01090040  RH  062%=      5-min Rain = 0
KBO1 050253Z 17010KT 11/04 A3013 RMK A01 T01100041  RH  062%=      5-min Rain = 0
KBO1 050254Z 17010KT 11/04 A3013 RMK A01 T01100040  RH  062%=      5-min Rain = 0
KBO1 050255Z 17010KT 11/04 A3013 RMK A01 T01100041  RH  062%=      5-min Rain = 0
KBO1 050256Z 17010KT 11/04 A3013 RMK A01 T01110041  RH  062%=      5-min Rain = 0
KBO1 050257Z 17010KT 11/04 A3013 RMK A01 T01120041  RH  062%=      5-min Rain = 0
KBO1 050258Z 16010KT 11/04 A3013 RMK A01 T01140042  RH  061%=      5-min Rain = 0
KBO1 050259Z 17010KT 11/04 A3013 RMK A01 T01140042  RH  061%=      5-min Rain = 0
KBO1 050300Z 17010KT 11/04 A3013 RMK A01 T01140042  RH  061%=      5-min Rain = 0
KBO1 050301Z 17010KT 11/04 A3013 RMK A01 T01140042  RH  061%=      5-min Rain = 0
KBO1 050302Z 17010KT 11/04 A3013 RMK A01 T01140042  RH  061%=      5-min Rain = 0
KBO1 050303Z 17010KT 11/04 A3013 RMK A01 T01140042  RH  061%=      5-min Rain = 0
KBO1 050304Z 17010KT 11/04 A3013 RMK A01 T01130043  RH  062%=      5-min Rain = 0
KBO1 050305Z 17010KT 11/04 A3013 RMK A01 T01120043  RH  062%=      5-min Rain = 0
KBO1 050306Z 17010KT 11/04 A3013 RMK A01 T01110043  RH  063%=      5-min Rain = 0
KBO1 050307Z 17010KT 11/04 A3013 RMK A01 T01110043  RH  063%=      5-min Rain = 0
KBO1 050308Z 17010KT 11/04 A3013 RMK A01 T01110043  RH  063%=      5-min Rain = 0
KBO1 050309Z 17011KT 11/04 A3013 RMK A01 T01110043  RH  063%=      5-min Rain = 0
KBO1 050310Z 17011KT 11/04 A3013 RMK A01 T01120043  RH  063%=      5-min Rain = 0
KBO1 050311Z 17010KT 11/04 A3013 RMK A01 T01120043  RH  063%=      5-min Rain = 0
KBO1 050312Z 17011KT 11/04 A3013 RMK A01 T01130044  RH  062%=      5-min Rain = 0
KBO1 050313Z 17010KT 11/04 A3013 RMK A01 T01140044  RH  062%=      5-min Rain = 0
KBO1 050314Z 17010KT 11/05 A3013 RMK A01 T01140045  RH  062%=      5-min Rain = 0
KBO1 050315Z 16010KT 11/05 A3013 RMK A01 T01130045  RH  063%=      5-min Rain = 0
KBO1 050316Z 17010KT 11/05 A3013 RMK A01 T01120045  RH  063%=      5-min Rain = 0
KBO1 050317Z 17010KT 11/05 A3013 RMK A01 T01110045  RH  064%=      5-min Rain = 0
KBO1 050318Z 17009KT 11/05 A3013 RMK A01 T01100045  RH  064%=      5-min Rain = 0
KBO1 050319Z 17010KT 11/05 A3013 RMK A01 T01100045  RH  064%=      5-min Rain = 0
KBO1 050320Z 17010KT 11/05 A3013 RMK A01 T01090045  RH  064%=      5-min Rain = 0
KBO1 050321Z 17011KT 11/05 A3013 RMK A01 T01090045  RH  064%=      5-min Rain = 0
KBO1 050322Z 18011KT 11/04 A3013 RMK A01 T01090044  RH  064%=      5-min Rain = 0
KBO1 050323Z 17011KT 11/04 A3013 RMK A01 T01090044  RH  064%=      5-min Rain = 0
KBO1 050324Z 17010KT 11/04 A3013 RMK A01 T01100044  RH  064%=      5-min Rain = 0
KBO1 050325Z 18011KT 11/04 A3013 RMK A01 T01100044  RH  064%=      5-min Rain = 0
KBO1 050326Z 17011KT 11/04 A3013 RMK A01 T01100044  RH  064%=      5-min Rain = 0
KBO1 050327Z 17011KT 11/05 A3013 RMK A01 T01110045  RH  064%=      5-min Rain = 0
KBO1 050328Z 17011KT 11/05 A3013 RMK A01 T01110045  RH  064%=      5-min Rain = 0
KBO1 050329Z 17010KT 11/05 A3013 RMK A01 T01110045  RH  064%=      5-min Rain = 0
KBO1 050330Z 17011KT 11/05 A3013 RMK A01 T01100045  RH  064%=      5-min Rain = 0
KBO1 050331Z 17010KT 11/05 A3013 RMK A01 T01100046  RH  064%=      5-min Rain = 0
KBO1 050332Z 17010KT 11/05 A3013 RMK A01 T01100046  RH  064%=      5-min Rain = 0
KBO1 050333Z 17010KT 11/05 A3014 RMK A01 T01100046  RH  064%=      5-min Rain = 0
KBO1 050334Z 17011KT 11/05 A3013 RMK A01 T01100046  RH  064%=      5-min Rain = 0
KBO1 050335Z 17011KT 11/05 A3013 RMK A01 T01110045  RH  064%=      5-min Rain = 0
KBO1 050336Z 17011KT 11/05 A3013 RMK A01 T01120046  RH  064%=      5-min Rain = 0
KBO1 050337Z 17010KT 11/05 A3013 RMK A01 T01120045  RH  064%=      5-min Rain = 0
KBO1 050338Z 17011KT 11/05 A3014 RMK A01 T01120046  RH  064%=      5-min Rain = 0
KBO1 050339Z 17011KT 11/05 A3014 RMK A01 T01120046  RH  064%=      5-min Rain = 0
KBO1 050340Z 17010KT 11/05 A3014 RMK A01 T01120046  RH  064%=      5-min Rain = 0
KBO1 050341Z 17011KT 11/05 A3014 RMK A01 T01120046  RH  064%=      5-min Rain = 0
KBO1 050342Z 17011KT 11/05 A3014 RMK A01 T01130046  RH  063%=      5-min Rain = 0
KBO1 050343Z 17011KT 11/05 A3014 RMK A01 T01130046  RH  063%=      5-min Rain = 0
KBO1 050344Z 17011KT 11/05 A3014 RMK A01 T01140046  RH  063%=      5-min Rain = 0
KBO1 050345Z 17011KT 11/05 A3014 RMK A01 T01140046  RH  063%=      5-min Rain = 0
KBO1 050346Z 16012KT 11/05 A3014 RMK A01 T01140047  RH  063%=      5-min Rain = 0
KBO1 050347Z 16012KT 11/05 A3014 RMK A01 T01140047  RH  063%=      5-min Rain = 0
KBO1 050348Z 17012KT 11/05 A3014 RMK A01 T01140047  RH  063%=      5-min Rain = 0
KBO1 050349Z 17012KT 12/05 A3014 RMK A01 T01150047  RH  063%=      5-min Rain = 0
KBO1 050350Z 17012KT 11/05 A3014 RMK A01 T01140047  RH  063%=      5-min Rain = 0
KBO1 050351Z 17012KT 11/05 A3014 RMK A01 T01140047  RH  063%=      5-min Rain = 0
KBO1 050352Z 17012KT 11/05 A3014 RMK A01 T01140047  RH  064%=      5-min Rain = 0
KBO1 050353Z 17012KT 11/05 A3014 RMK A01 T01140047  RH  064%=      5-min Rain = 0
KBO1 050354Z 17011KT 11/05 A3014 RMK A01 T01130047  RH  064%=      5-min Rain = 0
KBO1 050355Z 17011KT 11/05 A3014 RMK A01 T01120047  RH  064%=      5-min Rain = 0
KBO1 050356Z 17012KT 11/05 A3014 RMK A01 T01130047  RH  064%=      5-min Rain = 0
KBO1 050357Z 17011KT 11/05 A3014 RMK A01 T01130047  RH  064%=      5-min Rain = 0
KBO1 050358Z 17012KT 11/05 A3014 RMK A01 T01130047  RH  064%=      5-min Rain = 0
KBO1 050359Z 17012KT 11/05 A3014 RMK A01 T01120047  RH  064%=      5-min Rain = 0
KBO1 050400Z 17012KT 11/05 A3014 RMK A01 T01120047  RH  064%=      5-min Rain = 0
KBO1 050401Z 17012KT 11/05 A3014 RMK A01 T01130047  RH  064%=      5-min Rain = 0
KBO1 050402Z 17012KT 11/05 A3014 RMK A01 T01130048  RH  064%=      5-min Rain = 0
KBO1 050403Z 17011KT 11/05 A3014 RMK A01 T01130048  RH  064%=      5-min Rain = 0
KBO1 050404Z 17012KT 11/05 A3014 RMK A01 T01120048  RH  065%=      5-min Rain = 0
KBO1 050405Z 17011KT 11/05 A3014 RMK A01 T01120048  RH  065%=      5-min Rain = 0
KBO1 050406Z 17011KT 11/05 A3014 RMK A01 T01120048  RH  065%=      5-min Rain = 0
KBO1 050407Z 17012KT 11/05 A3014 RMK A01 T01120049  RH  065%=      5-min Rain = 0
KBO1 050408Z 17011KT 11/05 A3014 RMK A01 T01110048  RH  065%=      5-min Rain = 0
KBO1 050409Z 17012KT 11/05 A3014 RMK A01 T01110048  RH  065%=      5-min Rain = 0
KBO1 050410Z 17011KT 11/05 A3014 RMK A01 T01110048  RH  065%=      5-min Rain = 0
KBO1 050411Z 17011KT 11/05 A3014 RMK A01 T01110048  RH  065%=      5-min Rain = 0
KBO1 050412Z 17010KT 11/05 A3014 RMK A01 T01110049  RH  065%=      5-min Rain = 0
KBO1 050413Z 16011KT 11/05 A3014 RMK A01 T01110048  RH  065%=      5-min Rain = 0
KBO1 050414Z 17010KT 11/05 A3014 RMK A01 T01100048  RH  066%=      5-min Rain = 0
KBO1 050415Z 17010KT 11/05 A3014 RMK A01 T01100049  RH  066%=      5-min Rain = 0
KBO1 050416Z 17010KT 11/05 A3014 RMK A01 T01090049  RH  066%=      5-min Rain = 0
KBO1 050417Z 16009KT 11/05 A3014 RMK A01 T01080049  RH  067%=      5-min Rain = 0
KBO1 050418Z 16010KT 11/05 A3014 RMK A01 T01070049  RH  067%=      5-min Rain = 0
KBO1 050419Z 17010KT 11/05 A3014 RMK A01 T01060049  RH  068%=      5-min Rain = 0
KBO1 050420Z 17010KT 11/05 A3014 RMK A01 T01060049  RH  068%=      5-min Rain = 0
KBO1 050421Z 17010KT 11/05 A3014 RMK A01 T01050049  RH  068%=      5-min Rain = 0
KBO1 050422Z 17010KT 11/05 A3014 RMK A01 T01050049  RH  068%=      5-min Rain = 0
KBO1 050423Z 17010KT 10/05 A3014 RMK A01 T01040049  RH  069%=      5-min Rain = 0
KBO1 050424Z 16009KT 10/05 A3014 RMK A01 T01040050  RH  069%=      5-min Rain = 0
KBO1 050425Z 16010KT 10/05 A3014 RMK A01 T01030049  RH  069%=      5-min Rain = 0
KBO1 050426Z 16010KT 10/05 A3014 RMK A01 T01030049  RH  069%=      5-min Rain = 0
KBO1 050427Z 16010KT 10/05 A3014 RMK A01 T01030050  RH  070%=      5-min Rain = 0
KBO1 050428Z 16010KT 10/05 A3014 RMK A01 T01020050  RH  070%=      5-min Rain = 0
KBO1 050429Z 16010KT 10/05 A3014 RMK A01 T01020050  RH  070%=      5-min Rain = 0
KBO1 050430Z 16011KT 10/05 A3014 RMK A01 T01020051  RH  070%=      5-min Rain = 0
KBO1 050431Z 17011KT 10/05 A3014 RMK A01 T01020051  RH  071%=      5-min Rain = 0
KBO1 050432Z 17011KT 10/05 A3014 RMK A01 T01020050  RH  070%=      5-min Rain = 0
KBO1 050433Z 17012KT 10/05 A3014 RMK A01 T01020050  RH  070%=      5-min Rain = 0
KBO1 050434Z 17010KT 10/05 A3014 RMK A01 T01030050  RH  070%=      5-min Rain = 0
KBO1 050435Z 17010KT 10/05 A3014 RMK A01 T01030050  RH  070%=      5-min Rain = 0
KBO1 050436Z 17010KT 10/05 A3014 RMK A01 T01020050  RH  070%=      5-min Rain = 0
KBO1 050437Z 17010KT 10/05 A3014 RMK A01 T01020050  RH  070%=      5-min Rain = 0
KBO1 050438Z 17010KT 10/05 A3014 RMK A01 T01020050  RH  070%=      5-min Rain = 0
KBO1 050439Z 17010KT 10/05 A3014 RMK A01 T01010050  RH  071%=      5-min Rain = 0
KBO1 050440Z 17010KT 10/05 A3014 RMK A01 T01010050  RH  071%=      5-min Rain = 0
KBO1 050441Z 17011KT 10/05 A3014 RMK A01 T01010049  RH  070%=      5-min Rain = 0
KBO1 050442Z 17012KT 10/05 A3014 RMK A01 T01010049  RH  070%=      5-min Rain = 0
KBO1 050443Z 17011KT 10/05 A3014 RMK A01 T01030049  RH  069%=      5-min Rain = 0
KBO1 050444Z 17012KT 10/05 A3014 RMK A01 T01030049  RH  069%=      5-min Rain = 0
KBO1 050445Z 16012KT 10/05 A3014 RMK A01 T01040049  RH  069%=      5-min Rain = 0
KBO1 050446Z 17012KT 11/05 A3014 RMK A01 T01050049  RH  068%=      5-min Rain = 0
KBO1 050447Z 17012KT 11/05 A3014 RMK A01 T01050049  RH  068%=      5-min Rain = 0
KBO1 050448Z 16013KT 11/05 A3014 RMK A01 T01060049  RH  068%=      5-min Rain = 0
KBO1 050449Z 17013KT 11/05 A3014 RMK A01 T01060049  RH  068%=      5-min Rain = 0
KBO1 050450Z 17013KT 11/05 A3014 RMK A01 T01070048  RH  067%=      5-min Rain = 0
KBO1 050451Z 17012KT 11/05 A3014 RMK A01 T01070048  RH  067%=      5-min Rain = 0
KBO1 050452Z 17011KT 11/05 A3014 RMK A01 T01070049  RH  067%=      5-min Rain = 0
KBO1 050453Z 17011KT 11/05 A3014 RMK A01 T01060048  RH  068%=      5-min Rain = 0
KBO1 050454Z 17010KT 11/05 A3014 RMK A01 T01050048  RH  068%=      5-min Rain = 0
KBO1 050455Z 17010KT 10/05 A3014 RMK A01 T01040048  RH  068%=      5-min Rain = 0
KBO1 050456Z 17010KT 10/05 A3014 RMK A01 T01030048  RH  069%=      5-min Rain = 0
KBO1 050457Z 17010KT 10/05 A3014 RMK A01 T01020048  RH  069%=      5-min Rain = 0
KBO1 050458Z 17011KT 10/05 A3014 RMK A01 T01020049  RH  069%=      5-min Rain = 0
KBO1 050459Z 17011KT 10/05 A3014 RMK A01 T01020048  RH  070%=      5-min Rain = 0

Page generated in 0.0632 seconds.